PWSweather.com
Personal Weather Stations
Station Observations
KILASHKU1
Ashkum, IL

Ashkum, IL

Lat: 40.8779862, Lon: -87.846552

Elevation: 626

Station Type: Davis Vantage Pro 2

High Low Average
Temperature 54.6°F12.6°C 39.6°F4.2°C 46.2°F7.9°C
Dew Point 53.0°F11.7°C 36.1°F2.3°C 43.7°F6.5°C
Winds 17.0 mph 27.4 kmh 2.0 mph 3.2 kmh 9.0 mph SW14.5 kmh SW
Wind Gusts 31.0 mph49.9 kmh 5.0 mph8.0 kmh 17.0 mph27.4 kmh
Humidity 95% 82% 91%
Pressure 30.09 in1019.0 mb 29.76 in1007.8 mb -
Precipitation 0.19 in4.8 mm - -
Hour Temp Dew Point Humidity Winds Wind Gusts Pressure Precip Precip Rate Daily Precip Total
12:00 AM 40.8°F4.9°C 38.9°F3.8°C 93% 4.0 mph SE6.4 kmh SE 8.0 mph12.9 kmh 30.09 in1019.0 mb 0.00 in0.0 mm 0.00 in0.0 mm 0.00 in0.0 mm
12:02 AM 40.8°F4.9°C 38.9°F3.8°C 93% 4.0 mph SE6.4 kmh SE 8.0 mph12.9 kmh 30.08 in1018.6 mb 0.00 in0.0 mm 0.00 in0.0 mm 0.00 in0.0 mm
12:04 AM 40.8°F4.9°C 38.9°F3.8°C 93% 3.0 mph SE4.8 kmh SE 7.0 mph11.3 kmh 30.08 in1018.6 mb 0.00 in0.0 mm 0.00 in0.0 mm 0.00 in0.0 mm
12:06 AM 40.8°F4.9°C 38.9°F3.8°C 93% 3.0 mph SE4.8 kmh SE 7.0 mph11.3 kmh 30.08 in1018.6 mb 0.00 in0.0 mm 0.00 in0.0 mm 0.00 in0.0 mm
12:08 AM 40.7°F4.8°C 38.8°F3.8°C 93% 3.0 mph SE4.8 kmh SE 7.0 mph11.3 kmh 30.08 in1018.6 mb 0.00 in0.0 mm 0.00 in0.0 mm 0.00 in0.0 mm
12:10 AM 40.7°F4.8°C 38.6°F3.7°C 92% 2.0 mph SE3.2 kmh SE 5.0 mph8.0 kmh 30.08 in1018.6 mb 0.00 in0.0 mm 0.00 in0.0 mm 0.00 in0.0 mm
12:12 AM 40.7°F4.8°C 38.8°F3.8°C 93% 3.0 mph SE4.8 kmh SE 10.0 mph16.1 kmh 30.08 in1018.6 mb 0.00 in0.0 mm 0.00 in0.0 mm 0.00 in0.0 mm
12:14 AM 40.7°F4.8°C 38.8°F3.8°C 93% 3.0 mph SE4.8 kmh SE 10.0 mph16.1 kmh 30.08 in1018.6 mb 0.00 in0.0 mm 0.00 in0.0 mm 0.00 in0.0 mm
12:16 AM 40.7°F4.8°C 38.6°F3.7°C 92% 3.0 mph SE4.8 kmh SE 10.0 mph16.1 kmh 30.08 in1018.6 mb 0.00 in0.0 mm 0.00 in0.0 mm 0.00 in0.0 mm
12:18 AM 40.7°F4.8°C 38.6°F3.7°C 92% 3.0 mph SE4.8 kmh SE 10.0 mph16.1 kmh 30.08 in1018.6 mb 0.00 in0.0 mm 0.00 in0.0 mm 0.00 in0.0 mm
12:20 AM 40.6°F4.8°C 38.7°F3.7°C 93% 3.0 mph SE4.8 kmh SE 10.0 mph16.1 kmh 30.08 in1018.6 mb 0.00 in0.0 mm 0.00 in0.0 mm 0.00 in0.0 mm
12:22 AM 40.6°F4.8°C 38.7°F3.7°C 93% 3.0 mph SE4.8 kmh SE 6.0 mph9.7 kmh 30.07 in1018.3 mb 0.00 in0.0 mm 0.00 in0.0 mm 0.00 in0.0 mm
12:24 AM 40.6°F4.8°C 38.7°F3.7°C 93% 3.0 mph SE4.8 kmh SE 6.0 mph9.7 kmh 30.08 in1018.6 mb 0.00 in0.0 mm 0.00 in0.0 mm 0.00 in0.0 mm
12:26 AM 40.6°F4.8°C 38.7°F3.7°C 93% 3.0 mph SSE4.8 kmh SSE 8.0 mph12.9 kmh 30.08 in1018.6 mb 0.00 in0.0 mm 0.00 in0.0 mm 0.00 in0.0 mm
12:28 AM 40.6°F4.8°C 38.7°F3.7°C 93% 3.0 mph SSE4.8 kmh SSE 8.0 mph12.9 kmh 30.08 in1018.6 mb 0.00 in0.0 mm 0.00 in0.0 mm 0.00 in0.0 mm
12:30 AM 40.6°F4.8°C 38.7°F3.7°C 93% 3.0 mph SSE4.8 kmh SSE 8.0 mph12.9 kmh 30.07 in1018.3 mb 0.00 in0.0 mm 0.00 in0.0 mm 0.00 in0.0 mm
12:32 AM 40.6°F4.8°C 38.7°F3.7°C 93% 3.0 mph SSE4.8 kmh SSE 8.0 mph12.9 kmh 30.08 in1018.6 mb 0.00 in0.0 mm 0.00 in0.0 mm 0.00 in0.0 mm
12:34 AM 40.6°F4.8°C 38.7°F3.7°C 93% 3.0 mph SSE4.8 kmh SSE 8.0 mph12.9 kmh 30.08 in1018.6 mb 0.00 in0.0 mm 0.00 in0.0 mm 0.00 in0.0 mm
12:36 AM 40.6°F4.8°C 38.7°F3.7°C 93% 3.0 mph SE4.8 kmh SE 8.0 mph12.9 kmh 30.08 in1018.6 mb 0.00 in0.0 mm 0.00 in0.0 mm 0.00 in0.0 mm
12:38 AM 40.6°F4.8°C 38.7°F3.7°C 93% 3.0 mph SE4.8 kmh SE 8.0 mph12.9 kmh 30.08 in1018.6 mb 0.00 in0.0 mm 0.00 in0.0 mm 0.00 in0.0 mm
12:40 AM 40.6°F4.8°C 38.7°F3.7°C 93% 3.0 mph SSE4.8 kmh SSE 8.0 mph12.9 kmh 30.08 in1018.6 mb 0.00 in0.0 mm 0.00 in0.0 mm 0.00 in0.0 mm
12:42 AM 40.6°F4.8°C 38.7°F3.7°C 93% 3.0 mph SSE4.8 kmh SSE 8.0 mph12.9 kmh 30.07 in1018.3 mb 0.00 in0.0 mm 0.00 in0.0 mm 0.00 in0.0 mm
12:44 AM 40.6°F4.8°C 38.7°F3.7°C 93% 3.0 mph SSE4.8 kmh SSE 8.0 mph12.9 kmh 30.07 in1018.3 mb 0.00 in0.0 mm 0.00 in0.0 mm 0.00 in0.0 mm
12:46 AM 40.7°F4.8°C 38.6°F3.7°C 92% 3.0 mph SE4.8 kmh SE 8.0 mph12.9 kmh 30.07 in1018.3 mb 0.00 in0.0 mm 0.00 in0.0 mm 0.00 in0.0 mm
12:48 AM 40.7°F4.8°C 38.8°F3.8°C 93% 3.0 mph SSE4.8 kmh SSE 8.0 mph12.9 kmh 30.07 in1018.3 mb 0.00 in0.0 mm 0.00 in0.0 mm 0.00 in0.0 mm
12:50 AM 40.7°F4.8°C 38.8°F3.8°C 93% 3.0 mph SE4.8 kmh SE 7.0 mph11.3 kmh 30.07 in1018.3 mb 0.00 in0.0 mm 0.00 in0.0 mm 0.00 in0.0 mm
12:52 AM 40.8°F4.9°C 38.9°F3.8°C 93% 3.0 mph SE4.8 kmh SE 10.0 mph16.1 kmh 30.07 in1018.3 mb 0.00 in0.0 mm 0.00 in0.0 mm 0.00 in0.0 mm
12:54 AM 40.8°F4.9°C 38.7°F3.7°C 92% 3.0 mph SE4.8 kmh SE 10.0 mph16.1 kmh 30.08 in1018.6 mb 0.00 in0.0 mm 0.00 in0.0 mm 0.00 in0.0 mm
12:56 AM 40.8°F4.9°C 38.7°F3.7°C 92% 3.0 mph SSE4.8 kmh SSE 10.0 mph16.1 kmh 30.07 in1018.3 mb 0.00 in0.0 mm 0.00 in0.0 mm 0.00 in0.0 mm
12:58 AM 40.9°F4.9°C 38.8°F3.8°C 92% 3.0 mph SE4.8 kmh SE 10.0 mph16.1 kmh 30.07 in1018.3 mb 0.00 in0.0 mm 0.00 in0.0 mm 0.00 in0.0 mm
01:00 AM 40.9°F4.9°C 39.0°F3.9°C 93% 3.0 mph SSE4.8 kmh SSE 10.0 mph16.1 kmh 30.07 in1018.3 mb 0.00 in0.0 mm 0.00 in0.0 mm 0.00 in0.0 mm
01:02 AM 40.9°F4.9°C 39.0°F3.9°C 93% 3.0 mph SSE4.8 kmh SSE 6.0 mph9.7 kmh 30.07 in1018.3 mb 0.00 in0.0 mm 0.00 in0.0 mm 0.00 in0.0 mm
01:04 AM 40.9°F4.9°C 39.0°F3.9°C 93% 3.0 mph SSE4.8 kmh SSE 6.0 mph9.7 kmh 30.07 in1018.3 mb 0.00 in0.0 mm 0.00 in0.0 mm 0.00 in0.0 mm
01:06 AM 40.9°F4.9°C 39.0°F3.9°C 93% 3.0 mph S4.8 kmh S 6.0 mph9.7 kmh 30.06 in1017.9 mb 0.00 in0.0 mm 0.00 in0.0 mm 0.00 in0.0 mm
01:08 AM 40.9°F4.9°C 39.0°F3.9°C 93% 3.0 mph S4.8 kmh S 5.0 mph8.0 kmh 30.06 in1017.9 mb 0.00 in0.0 mm 0.00 in0.0 mm 0.00 in0.0 mm
01:10 AM 41.0°F5.0°C 39.1°F3.9°C 93% 3.0 mph S4.8 kmh S 10.0 mph16.1 kmh 30.06 in1017.9 mb 0.00 in0.0 mm 0.00 in0.0 mm 0.00 in0.0 mm
01:12 AM 41.0°F5.0°C 39.1°F3.9°C 93% 3.0 mph SSE4.8 kmh SSE 10.0 mph16.1 kmh 30.06 in1017.9 mb 0.00 in0.0 mm 0.00 in0.0 mm 0.00 in0.0 mm
01:14 AM 41.1°F5.1°C 39.0°F3.9°C 92% 3.0 mph SE4.8 kmh SE 10.0 mph16.1 kmh 30.06 in1017.9 mb 0.00 in0.0 mm 0.00 in0.0 mm 0.00 in0.0 mm
01:16 AM 41.1°F5.1°C 39.0°F3.9°C 92% 3.0 mph SE4.8 kmh SE 10.0 mph16.1 kmh 30.06 in1017.9 mb 0.00 in0.0 mm 0.00 in0.0 mm 0.00 in0.0 mm
01:18 AM 41.1°F5.1°C 39.0°F3.9°C 92% 4.0 mph SE6.4 kmh SE 10.0 mph16.1 kmh 30.06 in1017.9 mb 0.00 in0.0 mm 0.00 in0.0 mm 0.00 in0.0 mm
01:20 AM 41.2°F5.1°C 39.1°F3.9°C 92% 3.0 mph SE4.8 kmh SE 9.0 mph14.5 kmh 30.05 in1017.6 mb 0.00 in0.0 mm 0.00 in0.0 mm 0.00 in0.0 mm
01:22 AM 41.2°F5.1°C 39.1°F3.9°C 92% 4.0 mph SE6.4 kmh SE 9.0 mph14.5 kmh 30.06 in1017.9 mb 0.00 in0.0 mm 0.00 in0.0 mm 0.00 in0.0 mm
01:24 AM 41.3°F5.2°C 39.2°F4.0°C 92% 4.0 mph SE6.4 kmh SE 9.0 mph14.5 kmh 30.06 in1017.9 mb 0.00 in0.0 mm 0.00 in0.0 mm 0.00 in0.0 mm
01:26 AM 41.3°F5.2°C 39.2°F4.0°C 92% 3.0 mph SE4.8 kmh SE 8.0 mph12.9 kmh 30.06 in1017.9 mb 0.00 in0.0 mm 0.00 in0.0 mm 0.00 in0.0 mm
01:28 AM 41.3°F5.2°C 39.2°F4.0°C 92% 3.0 mph SE4.8 kmh SE 8.0 mph12.9 kmh 30.06 in1017.9 mb 0.00 in0.0 mm 0.00 in0.0 mm 0.00 in0.0 mm
01:30 AM 41.4°F5.2°C 39.3°F4.1°C 92% 4.0 mph SE6.4 kmh SE 8.0 mph12.9 kmh 30.06 in1017.9 mb 0.00 in0.0 mm 0.00 in0.0 mm 0.00 in0.0 mm
01:32 AM 41.4°F5.2°C 39.3°F4.1°C 92% 3.0 mph SE4.8 kmh SE 8.0 mph12.9 kmh 30.06 in1017.9 mb 0.00 in0.0 mm 0.00 in0.0 mm 0.00 in0.0 mm
01:34 AM 41.5°F5.3°C 39.3°F4.1°C 92% 4.0 mph SE6.4 kmh SE 9.0 mph14.5 kmh 30.06 in1017.9 mb 0.00 in0.0 mm 0.00 in0.0 mm 0.00 in0.0 mm
01:36 AM 41.5°F5.3°C 39.3°F4.1°C 92% 4.0 mph SE6.4 kmh SE 9.0 mph14.5 kmh 30.06 in1017.9 mb 0.00 in0.0 mm 0.00 in0.0 mm 0.00 in0.0 mm
01:38 AM 41.6°F5.3°C 39.4°F4.1°C 92% 4.0 mph SE6.4 kmh SE 9.0 mph14.5 kmh 30.06 in1017.9 mb 0.00 in0.0 mm 0.00 in0.0 mm 0.00 in0.0 mm
01:40 AM 41.6°F5.3°C 39.4°F4.1°C 92% 4.0 mph SE6.4 kmh SE 9.0 mph14.5 kmh 30.06 in1017.9 mb 0.00 in0.0 mm 0.00 in0.0 mm 0.00 in0.0 mm
01:42 AM 41.7°F5.4°C 39.5°F4.2°C 92% 4.0 mph SE6.4 kmh SE 11.0 mph17.7 kmh 30.05 in1017.6 mb 0.00 in0.0 mm 0.00 in0.0 mm 0.00 in0.0 mm
01:44 AM 41.7°F5.4°C 39.5°F4.2°C 92% 4.0 mph SE6.4 kmh SE 11.0 mph17.7 kmh 30.05 in1017.6 mb 0.00 in0.0 mm 0.00 in0.0 mm 0.00 in0.0 mm
01:46 AM 41.7°F5.4°C 39.5°F4.2°C 92% 5.0 mph SSE8.0 kmh SSE 12.0 mph19.3 kmh 30.06 in1017.9 mb 0.00 in0.0 mm 0.00 in0.0 mm 0.00 in0.0 mm
01:48 AM 41.8°F5.4°C 39.6°F4.2°C 92% 5.0 mph SE8.0 kmh SE 12.0 mph19.3 kmh 30.06 in1017.9 mb 0.00 in0.0 mm 0.00 in0.0 mm 0.00 in0.0 mm
01:50 AM 41.8°F5.4°C 39.6°F4.2°C 92% 5.0 mph SE8.0 kmh SE 12.0 mph19.3 kmh 30.06 in1017.9 mb 0.00 in0.0 mm 0.00 in0.0 mm 0.00 in0.0 mm
01:52 AM 41.8°F5.4°C 39.6°F4.2°C 92% 5.0 mph SSE8.0 kmh SSE 12.0 mph19.3 kmh 30.05 in1017.6 mb 0.00 in0.0 mm 0.00 in0.0 mm 0.00 in0.0 mm
01:54 AM 41.9°F5.5°C 39.7°F4.3°C 92% 5.0 mph SSE8.0 kmh SSE 12.0 mph19.3 kmh 30.05 in1017.6 mb 0.00 in0.0 mm 0.00 in0.0 mm 0.00 in0.0 mm
01:56 AM 41.9°F5.5°C 39.7°F4.3°C 92% 4.0 mph SSE6.4 kmh SSE 12.0 mph19.3 kmh 30.05 in1017.6 mb 0.00 in0.0 mm 0.00 in0.0 mm 0.00 in0.0 mm
01:58 AM 41.9°F5.5°C 39.7°F4.3°C 92% 4.0 mph SSE6.4 kmh SSE 12.0 mph19.3 kmh 30.05 in1017.6 mb 0.00 in0.0 mm 0.00 in0.0 mm 0.00 in0.0 mm
02:00 AM 42.0°F5.6°C 39.6°F4.2°C 91% 4.0 mph SE6.4 kmh SE 12.0 mph19.3 kmh 30.04 in1017.3 mb 0.00 in0.0 mm 0.00 in0.0 mm 0.00 in0.0 mm
02:02 AM 42.0°F5.6°C 39.6°F4.2°C 91% 4.0 mph SE6.4 kmh SE 10.0 mph16.1 kmh 30.04 in1017.3 mb 0.00 in0.0 mm 0.00 in0.0 mm 0.00 in0.0 mm
02:04 AM 42.0°F5.6°C 39.6°F4.2°C 91% 4.0 mph SE6.4 kmh SE 10.0 mph16.1 kmh 30.04 in1017.3 mb 0.00 in0.0 mm 0.00 in0.0 mm 0.00 in0.0 mm
02:06 AM 42.1°F5.6°C 39.7°F4.3°C 91% 4.0 mph SE6.4 kmh SE 10.0 mph16.1 kmh 30.04 in1017.3 mb 0.00 in0.0 mm 0.00 in0.0 mm 0.00 in0.0 mm
02:08 AM 42.1°F5.6°C 39.7°F4.3°C 91% 4.0 mph SE6.4 kmh SE 8.0 mph12.9 kmh 30.04 in1017.3 mb 0.00 in0.0 mm 0.00 in0.0 mm 0.00 in0.0 mm
02:10 AM 42.2°F5.7°C 39.8°F4.3°C 91% 4.0 mph SE6.4 kmh SE 10.0 mph16.1 kmh 30.04 in1017.3 mb 0.00 in0.0 mm 0.00 in0.0 mm 0.00 in0.0 mm
02:12 AM 42.2°F5.7°C 39.8°F4.3°C 91% 4.0 mph SE6.4 kmh SE 10.0 mph16.1 kmh 30.04 in1017.3 mb 0.00 in0.0 mm 0.00 in0.0 mm 0.00 in0.0 mm
02:14 AM 42.3°F5.7°C 39.9°F4.4°C 91% 4.0 mph SE6.4 kmh SE 10.0 mph16.1 kmh 30.04 in1017.3 mb 0.00 in0.0 mm 0.00 in0.0 mm 0.00 in0.0 mm
02:16 AM 42.3°F5.7°C 39.9°F4.4°C 91% 4.0 mph SE6.4 kmh SE 10.0 mph16.1 kmh 30.04 in1017.3 mb 0.00 in0.0 mm 0.00 in0.0 mm 0.00 in0.0 mm
02:18 AM 42.4°F5.8°C 40.0°F4.4°C 91% 4.0 mph SSE6.4 kmh SSE 10.0 mph16.1 kmh 30.04 in1017.3 mb 0.00 in0.0 mm 0.00 in0.0 mm 0.00 in0.0 mm
02:20 AM 42.5°F5.8°C 40.1°F4.5°C 91% 4.0 mph SE6.4 kmh SE 9.0 mph14.5 kmh 30.04 in1017.3 mb 0.00 in0.0 mm 0.00 in0.0 mm 0.00 in0.0 mm
02:22 AM 42.5°F5.8°C 40.1°F4.5°C 91% 4.0 mph SE6.4 kmh SE 9.0 mph14.5 kmh 30.04 in1017.3 mb 0.00 in0.0 mm 0.00 in0.0 mm 0.00 in0.0 mm
02:24 AM 42.6°F5.9°C 40.2°F4.6°C 91% 4.0 mph SSE6.4 kmh SSE 9.0 mph14.5 kmh 30.03 in1016.9 mb 0.00 in0.0 mm 0.00 in0.0 mm 0.00 in0.0 mm
02:26 AM 42.7°F5.9°C 40.3°F4.6°C 91% 4.0 mph SSE6.4 kmh SSE 9.0 mph14.5 kmh 30.03 in1016.9 mb 0.00 in0.0 mm 0.00 in0.0 mm 0.00 in0.0 mm
02:28 AM 42.7°F5.9°C 40.3°F4.6°C 91% 4.0 mph SE6.4 kmh SE 9.0 mph14.5 kmh 30.02 in1016.6 mb 0.00 in0.0 mm 0.00 in0.0 mm 0.00 in0.0 mm
02:30 AM 42.8°F6.0°C 40.4°F4.7°C 91% 5.0 mph SE8.0 kmh SE 10.0 mph16.1 kmh 30.02 in1016.6 mb 0.00 in0.0 mm 0.00 in0.0 mm 0.00 in0.0 mm
02:32 AM 42.8°F6.0°C 40.1°F4.5°C 90% 4.0 mph SE6.4 kmh SE 13.0 mph20.9 kmh 30.02 in1016.6 mb 0.00 in0.0 mm 0.00 in0.0 mm 0.00 in0.0 mm
02:34 AM 42.8°F6.0°C 40.1°F4.5°C 90% 5.0 mph SE8.0 kmh SE 13.0 mph20.9 kmh 30.02 in1016.6 mb 0.00 in0.0 mm 0.00 in0.0 mm 0.00 in0.0 mm
02:36 AM 42.9°F6.1°C 40.2°F4.6°C 90% 5.0 mph SE8.0 kmh SE 13.0 mph20.9 kmh 30.02 in1016.6 mb 0.00 in0.0 mm 0.00 in0.0 mm 0.00 in0.0 mm
02:38 AM 42.9°F6.1°C 40.2°F4.6°C 90% 5.0 mph SE8.0 kmh SE 13.0 mph20.9 kmh 30.02 in1016.6 mb 0.00 in0.0 mm 0.00 in0.0 mm 0.00 in0.0 mm
02:40 AM 42.9°F6.1°C 40.2°F4.6°C 90% 5.0 mph SE8.0 kmh SE 13.0 mph20.9 kmh 30.02 in1016.6 mb 0.00 in0.0 mm 0.00 in0.0 mm 0.00 in0.0 mm
02:42 AM 42.9°F6.1°C 40.2°F4.6°C 90% 5.0 mph SE8.0 kmh SE 10.0 mph16.1 kmh 30.02 in1016.6 mb 0.00 in0.0 mm 0.00 in0.0 mm 0.00 in0.0 mm
02:44 AM 42.9°F6.1°C 40.2°F4.6°C 90% 4.0 mph SE6.4 kmh SE 9.0 mph14.5 kmh 30.01 in1016.3 mb 0.00 in0.0 mm 0.00 in0.0 mm 0.00 in0.0 mm
02:46 AM 42.9°F6.1°C 40.2°F4.6°C 90% 4.0 mph SE6.4 kmh SE 8.0 mph12.9 kmh 30.01 in1016.3 mb 0.00 in0.0 mm 0.00 in0.0 mm 0.00 in0.0 mm
02:48 AM 42.9°F6.1°C 40.5°F4.7°C 91% 4.0 mph SE6.4 kmh SE 6.0 mph9.7 kmh 30.01 in1016.3 mb 0.00 in0.0 mm 0.00 in0.0 mm 0.00 in0.0 mm
02:50 AM 42.9°F6.1°C 40.5°F4.7°C 91% 4.0 mph SE6.4 kmh SE 6.0 mph9.7 kmh 30.01 in1016.3 mb 0.00 in0.0 mm 0.00 in0.0 mm 0.00 in0.0 mm
02:52 AM 42.8°F6.0°C 40.4°F4.7°C 91% 4.0 mph SE6.4 kmh SE 9.0 mph14.5 kmh 30.00 in1015.9 mb 0.00 in0.0 mm 0.00 in0.0 mm 0.00 in0.0 mm
02:54 AM 42.8°F6.0°C 40.4°F4.7°C 91% 4.0 mph SE6.4 kmh SE 11.0 mph17.7 kmh 30.01 in1016.3 mb 0.00 in0.0 mm 0.00 in0.0 mm 0.00 in0.0 mm
02:56 AM 42.8°F6.0°C 40.4°F4.7°C 91% 4.0 mph SE6.4 kmh SE 11.0 mph17.7 kmh 30.00 in1015.9 mb 0.00 in0.0 mm 0.00 in0.0 mm 0.00 in0.0 mm
02:58 AM 42.9°F6.1°C 40.5°F4.7°C 91% 4.0 mph SE6.4 kmh SE 11.0 mph17.7 kmh 30.00 in1015.9 mb 0.00 in0.0 mm 0.00 in0.0 mm 0.00 in0.0 mm
03:00 AM 42.9°F6.1°C 40.5°F4.7°C 91% 4.0 mph SE6.4 kmh SE 11.0 mph17.7 kmh 30.00 in1015.9 mb 0.00 in0.0 mm 0.00 in0.0 mm 0.00 in0.0 mm
03:02 AM 42.9°F6.1°C 40.5°F4.7°C 91% 5.0 mph SE8.0 kmh SE 11.0 mph17.7 kmh 30.00 in1015.9 mb 0.00 in0.0 mm 0.00 in0.0 mm 0.00 in0.0 mm
03:04 AM 43.0°F6.1°C 40.6°F4.8°C 91% 5.0 mph SE8.0 kmh SE 11.0 mph17.7 kmh 30.00 in1015.9 mb 0.00 in0.0 mm 0.00 in0.0 mm 0.00 in0.0 mm
03:06 AM 43.0°F6.1°C 40.6°F4.8°C 91% 4.0 mph SE6.4 kmh SE 11.0 mph17.7 kmh 30.00 in1015.9 mb 0.00 in0.0 mm 0.00 in0.0 mm 0.00 in0.0 mm
03:08 AM 43.1°F6.2°C 40.7°F4.8°C 91% 4.0 mph SE6.4 kmh SE 10.0 mph16.1 kmh 30.00 in1015.9 mb 0.00 in0.0 mm 0.00 in0.0 mm 0.00 in0.0 mm
03:10 AM 43.1°F6.2°C 40.7°F4.8°C 91% 4.0 mph SE6.4 kmh SE 12.0 mph19.3 kmh 30.00 in1015.9 mb 0.00 in0.0 mm 0.00 in0.0 mm 0.00 in0.0 mm
03:12 AM 43.2°F6.2°C 40.8°F4.9°C 91% 4.0 mph SE6.4 kmh SE 12.0 mph19.3 kmh 30.00 in1015.9 mb 0.00 in0.0 mm 0.00 in0.0 mm 0.00 in0.0 mm
03:14 AM 43.2°F6.2°C 40.8°F4.9°C 91% 4.0 mph SE6.4 kmh SE 12.0 mph19.3 kmh 30.00 in1015.9 mb 0.00 in0.0 mm 0.00 in0.0 mm 0.00 in0.0 mm
03:16 AM 43.3°F6.3°C 40.8°F4.9°C 91% 4.0 mph SE6.4 kmh SE 12.0 mph19.3 kmh 30.00 in1015.9 mb 0.00 in0.0 mm 0.00 in0.0 mm 0.00 in0.0 mm
03:18 AM 43.4°F6.3°C 40.7°F4.8°C 90% 4.0 mph SE6.4 kmh SE 12.0 mph19.3 kmh 30.00 in1015.9 mb 0.00 in0.0 mm 0.00 in0.0 mm 0.00 in0.0 mm
03:20 AM 43.5°F6.4°C 40.8°F4.9°C 90% 4.0 mph SE6.4 kmh SE 10.0 mph16.1 kmh 30.00 in1015.9 mb 0.00 in0.0 mm 0.00 in0.0 mm 0.00 in0.0 mm
03:22 AM 43.6°F6.4°C 40.9°F4.9°C 90% 4.0 mph SE6.4 kmh SE 8.0 mph12.9 kmh 30.00 in1015.9 mb 0.00 in0.0 mm 0.00 in0.0 mm 0.00 in0.0 mm
03:24 AM 43.8°F6.6°C 41.1°F5.1°C 90% 4.0 mph SE6.4 kmh SE 8.0 mph12.9 kmh 30.00 in1015.9 mb 0.00 in0.0 mm 0.00 in0.0 mm 0.00 in0.0 mm
03:26 AM 43.9°F6.6°C 40.9°F4.9°C 89% 5.0 mph SE8.0 kmh SE 10.0 mph16.1 kmh 29.99 in1015.6 mb 0.00 in0.0 mm 0.00 in0.0 mm 0.00 in0.0 mm
03:28 AM 44.1°F6.7°C 41.1°F5.1°C 89% 5.0 mph SE8.0 kmh SE 10.0 mph16.1 kmh 29.99 in1015.6 mb 0.00 in0.0 mm 0.00 in0.0 mm 0.00 in0.0 mm
03:30 AM 44.1°F6.7°C 41.1°F5.1°C 89% 4.0 mph SE6.4 kmh SE 10.0 mph16.1 kmh 29.99 in1015.6 mb 0.00 in0.0 mm 0.00 in0.0 mm 0.00 in0.0 mm
03:32 AM 44.1°F6.7°C 41.1°F5.1°C 89% 4.0 mph SE6.4 kmh SE 10.0 mph16.1 kmh 29.98 in1015.2 mb 0.00 in0.0 mm 0.00 in0.0 mm 0.00 in0.0 mm
03:34 AM 44.1°F6.7°C 41.1°F5.1°C 89% 4.0 mph SE6.4 kmh SE 10.0 mph16.1 kmh 29.98 in1015.2 mb 0.00 in0.0 mm 0.00 in0.0 mm 0.00 in0.0 mm
03:36 AM 44.1°F6.7°C 41.1°F5.1°C 89% 3.0 mph SE4.8 kmh SE 7.0 mph11.3 kmh 29.98 in1015.2 mb 0.00 in0.0 mm 0.00 in0.0 mm 0.00 in0.0 mm
03:38 AM 44.1°F6.7°C 41.1°F5.1°C 89% 4.0 mph SE6.4 kmh SE 9.0 mph14.5 kmh 29.98 in1015.2 mb 0.00 in0.0 mm 0.00 in0.0 mm 0.00 in0.0 mm
03:40 AM 44.1°F6.7°C 40.8°F4.9°C 88% 4.0 mph SE6.4 kmh SE 9.0 mph14.5 kmh 29.98 in1015.2 mb 0.00 in0.0 mm 0.00 in0.0 mm 0.00 in0.0 mm
03:42 AM 44.2°F6.8°C 40.9°F4.9°C 88% 4.0 mph SE6.4 kmh SE 9.0 mph14.5 kmh 29.98 in1015.2 mb 0.00 in0.0 mm 0.00 in0.0 mm 0.00 in0.0 mm
03:44 AM 44.2°F6.8°C 40.9°F4.9°C 88% 4.0 mph SE6.4 kmh SE 9.0 mph14.5 kmh 29.98 in1015.2 mb 0.00 in0.0 mm 0.00 in0.0 mm 0.00 in0.0 mm
03:46 AM 44.2°F6.8°C 40.9°F4.9°C 88% 4.0 mph SE6.4 kmh SE 9.0 mph14.5 kmh 29.98 in1015.2 mb 0.00 in0.0 mm 0.00 in0.0 mm 0.00 in0.0 mm
03:48 AM 44.2°F6.8°C 40.9°F4.9°C 88% 4.0 mph SE6.4 kmh SE 9.0 mph14.5 kmh 29.98 in1015.2 mb 0.00 in0.0 mm 0.00 in0.0 mm 0.00 in0.0 mm
03:50 AM 44.4°F6.9°C 41.1°F5.1°C 88% 4.0 mph SE6.4 kmh SE 8.0 mph12.9 kmh 29.97 in1014.9 mb 0.00 in0.0 mm 0.00 in0.0 mm 0.00 in0.0 mm
03:52 AM 44.5°F6.9°C 41.2°F5.1°C 88% 4.0 mph SE6.4 kmh SE 14.0 mph22.5 kmh 29.98 in1015.2 mb 0.00 in0.0 mm 0.00 in0.0 mm 0.00 in0.0 mm
03:54 AM 44.5°F6.9°C 41.2°F5.1°C 88% 4.0 mph SE6.4 kmh SE 14.0 mph22.5 kmh 29.97 in1014.9 mb 0.00 in0.0 mm 0.00 in0.0 mm 0.00 in0.0 mm
03:56 AM 44.5°F6.9°C 41.2°F5.1°C 88% 4.0 mph SE6.4 kmh SE 14.0 mph22.5 kmh 29.97 in1014.9 mb 0.00 in0.0 mm 0.00 in0.0 mm 0.00 in0.0 mm
03:58 AM 44.6°F7.0°C 41.3°F5.2°C 88% 4.0 mph SE6.4 kmh SE 14.0 mph22.5 kmh 29.96 in1014.6 mb 0.00 in0.0 mm 0.00 in0.0 mm 0.00 in0.0 mm
04:00 AM 44.6°F7.0°C 41.3°F5.2°C 88% 4.0 mph SE6.4 kmh SE 14.0 mph22.5 kmh 29.96 in1014.6 mb 0.00 in0.0 mm 0.00 in0.0 mm 0.00 in0.0 mm
04:02 AM 44.6°F7.0°C 41.3°F5.2°C 88% 4.0 mph SE6.4 kmh SE 9.0 mph14.5 kmh 29.96 in1014.6 mb 0.00 in0.0 mm 0.00 in0.0 mm 0.00 in0.0 mm
04:04 AM 44.7°F7.1°C 41.1°F5.1°C 87% 4.0 mph SE6.4 kmh SE 15.0 mph24.1 kmh 29.96 in1014.6 mb 0.00 in0.0 mm 0.00 in0.0 mm 0.00 in0.0 mm
04:06 AM 44.7°F7.1°C 41.1°F5.1°C 87% 4.0 mph SE6.4 kmh SE 15.0 mph24.1 kmh 29.96 in1014.6 mb 0.00 in0.0 mm 0.00 in0.0 mm 0.00 in0.0 mm
04:08 AM 44.9°F7.2°C 41.3°F5.2°C 87% 5.0 mph SE8.0 kmh SE 15.0 mph24.1 kmh 29.95 in1014.2 mb 0.00 in0.0 mm 0.00 in0.0 mm 0.00 in0.0 mm
04:10 AM 45.0°F7.2°C 41.4°F5.2°C 87% 5.0 mph SE8.0 kmh SE 15.0 mph24.1 kmh 29.95 in1014.2 mb 0.00 in0.0 mm 0.00 in0.0 mm 0.00 in0.0 mm
04:12 AM 45.1°F7.3°C 41.5°F5.3°C 87% 5.0 mph SE8.0 kmh SE 15.0 mph24.1 kmh 29.95 in1014.2 mb 0.00 in0.0 mm 0.00 in0.0 mm 0.00 in0.0 mm
04:14 AM 45.2°F7.3°C 41.6°F5.3°C 87% 5.0 mph SE8.0 kmh SE 14.0 mph22.5 kmh 29.95 in1014.2 mb 0.00 in0.0 mm 0.00 in0.0 mm 0.00 in0.0 mm
04:16 AM 45.2°F7.3°C 41.3°F5.2°C 86% 5.0 mph SE8.0 kmh SE 14.0 mph22.5 kmh 29.95 in1014.2 mb 0.00 in0.0 mm 0.00 in0.0 mm 0.00 in0.0 mm
04:18 AM 45.3°F7.4°C 41.4°F5.2°C 86% 5.0 mph SE8.0 kmh SE 14.0 mph22.5 kmh 29.94 in1013.9 mb 0.00 in0.0 mm 0.00 in0.0 mm 0.00 in0.0 mm
04:20 AM 45.4°F7.4°C 41.5°F5.3°C 86% 5.0 mph SE8.0 kmh SE 14.0 mph22.5 kmh 29.95 in1014.2 mb 0.00 in0.0 mm 0.00 in0.0 mm 0.00 in0.0 mm
04:22 AM 45.4°F7.4°C 41.5°F5.3°C 86% 5.0 mph SE8.0 kmh SE 15.0 mph24.1 kmh 29.95 in1014.2 mb 0.00 in0.0 mm 0.00 in0.0 mm 0.00 in0.0 mm
04:24 AM 45.6°F7.6°C 41.7°F5.4°C 86% 5.0 mph SE8.0 kmh SE 15.0 mph24.1 kmh 29.95 in1014.2 mb 0.00 in0.0 mm 0.00 in0.0 mm 0.00 in0.0 mm
04:26 AM 45.8°F7.7°C 41.5°F5.3°C 85% 6.0 mph SE9.7 kmh SE 15.0 mph24.1 kmh 29.94 in1013.9 mb 0.00 in0.0 mm 0.00 in0.0 mm 0.00 in0.0 mm
04:28 AM 46.0°F7.8°C 41.7°F5.4°C 85% 6.0 mph SE9.7 kmh SE 15.0 mph24.1 kmh 29.94 in1013.9 mb 0.00 in0.0 mm 0.00 in0.0 mm 0.00 in0.0 mm
04:30 AM 46.2°F7.9°C 41.6°F5.3°C 84% 7.0 mph SSE11.3 kmh SSE 16.0 mph25.7 kmh 29.94 in1013.9 mb 0.00 in0.0 mm 0.00 in0.0 mm 0.00 in0.0 mm
04:32 AM 46.3°F7.9°C 42.0°F5.6°C 85% 7.0 mph SSE11.3 kmh SSE 16.0 mph25.7 kmh 29.94 in1013.9 mb 0.00 in0.0 mm 0.00 in0.0 mm 0.00 in0.0 mm
04:34 AM 46.2°F7.9°C 41.9°F5.5°C 85% 7.0 mph SSE11.3 kmh SSE 16.0 mph25.7 kmh 29.94 in1013.9 mb 0.00 in0.0 mm 0.00 in0.0 mm 0.00 in0.0 mm
04:36 AM 46.1°F7.8°C 41.8°F5.4°C 85% 7.0 mph SSE11.3 kmh SSE 16.0 mph25.7 kmh 29.93 in1013.5 mb 0.00 in0.0 mm 0.00 in0.0 mm 0.00 in0.0 mm
04:38 AM 46.1°F7.8°C 41.8°F5.4°C 85% 6.0 mph SSE9.7 kmh SSE 16.0 mph25.7 kmh 29.93 in1013.5 mb 0.00 in0.0 mm 0.00 in0.0 mm 0.00 in0.0 mm
04:40 AM 46.0°F7.8°C 42.0°F5.6°C 86% 5.0 mph SE8.0 kmh SE 12.0 mph19.3 kmh 29.93 in1013.5 mb 0.00 in0.0 mm 0.00 in0.0 mm 0.00 in0.0 mm
04:42 AM 45.9°F7.7°C 41.9°F5.5°C 86% 5.0 mph SE8.0 kmh SE 12.0 mph19.3 kmh 29.93 in1013.5 mb 0.00 in0.0 mm 0.00 in0.0 mm 0.00 in0.0 mm
04:44 AM 45.9°F7.7°C 41.9°F5.5°C 86% 5.0 mph SE8.0 kmh SE 12.0 mph19.3 kmh 29.93 in1013.5 mb 0.00 in0.0 mm 0.00 in0.0 mm 0.00 in0.0 mm
04:46 AM 46.0°F7.8°C 41.7°F5.4°C 85% 5.0 mph SE8.0 kmh SE 14.0 mph22.5 kmh 29.93 in1013.5 mb 0.00 in0.0 mm 0.00 in0.0 mm 0.00 in0.0 mm
04:48 AM 46.0°F7.8°C 41.7°F5.4°C 85% 5.0 mph SE8.0 kmh SE 14.0 mph22.5 kmh 29.93 in1013.5 mb 0.00 in0.0 mm 0.00 in0.0 mm 0.00 in0.0 mm
04:50 AM 46.1°F7.8°C 41.8°F5.4°C 85% 6.0 mph SSE9.7 kmh SSE 16.0 mph25.7 kmh 29.93 in1013.5 mb 0.00 in0.0 mm 0.00 in0.0 mm 0.00 in0.0 mm
04:52 AM 46.1°F7.8°C 41.8°F5.4°C 85% 6.0 mph SSE9.7 kmh SSE 16.0 mph25.7 kmh 29.92 in1013.2 mb 0.00 in0.0 mm 0.00 in0.0 mm 0.00 in0.0 mm
04:54 AM 46.1°F7.8°C 41.8°F5.4°C 85% 6.0 mph SSE9.7 kmh SSE 16.0 mph25.7 kmh 29.92 in1013.2 mb 0.00 in0.0 mm 0.00 in0.0 mm 0.00 in0.0 mm
04:56 AM 46.2°F7.9°C 41.9°F5.5°C 85% 6.0 mph SSE9.7 kmh SSE 16.0 mph25.7 kmh 29.91 in1012.9 mb 0.00 in0.0 mm 0.00 in0.0 mm 0.00 in0.0 mm
04:58 AM 46.3°F7.9°C 41.7°F5.4°C 84% 6.0 mph SSE9.7 kmh SSE 16.0 mph25.7 kmh 29.92 in1013.2 mb 0.00 in0.0 mm 0.00 in0.0 mm 0.00 in0.0 mm
05:00 AM 46.5°F8.1°C 41.9°F5.5°C 84% 6.0 mph SE9.7 kmh SE 15.0 mph24.1 kmh 29.91 in1012.9 mb 0.00 in0.0 mm 0.00 in0.0 mm 0.00 in0.0 mm
05:02 AM 46.6°F8.1°C 42.0°F5.6°C 84% 6.0 mph SE9.7 kmh SE 15.0 mph24.1 kmh 29.92 in1013.2 mb 0.00 in0.0 mm 0.00 in0.0 mm 0.00 in0.0 mm
05:04 AM 46.6°F8.1°C 42.0°F5.6°C 84% 6.0 mph SE9.7 kmh SE 15.0 mph24.1 kmh 29.92 in1013.2 mb 0.00 in0.0 mm 0.00 in0.0 mm 0.00 in0.0 mm
05:06 AM 47.0°F8.3°C 42.1°F5.6°C 83% 7.0 mph SE11.3 kmh SE 15.0 mph24.1 kmh 29.92 in1013.2 mb 0.00 in0.0 mm 0.00 in0.0 mm 0.00 in0.0 mm
05:08 AM 47.1°F8.4°C 42.2°F5.7°C 83% 8.0 mph SE12.9 kmh SE 16.0 mph25.7 kmh 29.92 in1013.2 mb 0.00 in0.0 mm 0.00 in0.0 mm 0.00 in0.0 mm
05:10 AM 47.2°F8.4°C 42.0°F5.6°C 82% 8.0 mph SSE12.9 kmh SSE 17.0 mph27.4 kmh 29.93 in1013.5 mb 0.00 in0.0 mm 0.00 in0.0 mm 0.00 in0.0 mm
05:12 AM 47.3°F8.5°C 42.4°F5.8°C 83% 9.0 mph SSE14.5 kmh SSE 17.0 mph27.4 kmh 29.93 in1013.5 mb 0.00 in0.0 mm 0.00 in0.0 mm 0.00 in0.0 mm
05:14 AM 47.4°F8.6°C 42.2°F5.7°C 82% 10.0 mph SSE16.1 kmh SSE 19.0 mph30.6 kmh 29.92 in1013.2 mb 0.00 in0.0 mm 0.00 in0.0 mm 0.00 in0.0 mm
05:16 AM 47.5°F8.6°C 42.3°F5.7°C 82% 10.0 mph SSE16.1 kmh SSE 21.0 mph33.8 kmh 29.93 in1013.5 mb 0.00 in0.0 mm 0.00 in0.0 mm 0.00 in0.0 mm
05:18 AM 47.6°F8.7°C 42.4°F5.8°C 82% 11.0 mph SSE17.7 kmh SSE 21.0 mph33.8 kmh 29.92 in1013.2 mb 0.00 in0.0 mm 0.00 in0.0 mm 0.00 in0.0 mm
05:20 AM 47.7°F8.7°C 42.8°F6.0°C 83% 11.0 mph SSE17.7 kmh SSE 21.0 mph33.8 kmh 29.92 in1013.2 mb 0.00 in0.0 mm 0.00 in0.0 mm 0.00 in0.0 mm
05:22 AM 47.8°F8.8°C 42.6°F5.9°C 82% 10.0 mph SSE16.1 kmh SSE 21.0 mph33.8 kmh 29.91 in1012.9 mb 0.00 in0.0 mm 0.00 in0.0 mm 0.00 in0.0 mm
05:24 AM 47.9°F8.8°C 42.7°F5.9°C 82% 10.0 mph SSE16.1 kmh SSE 21.0 mph33.8 kmh 29.91 in1012.9 mb 0.00 in0.0 mm 0.00 in0.0 mm 0.00 in0.0 mm
05:26 AM 47.9°F8.8°C 43.0°F6.1°C 83% 10.0 mph SSE16.1 kmh SSE 20.0 mph32.2 kmh 29.91 in1012.9 mb 0.00 in0.0 mm 0.00 in0.0 mm 0.00 in0.0 mm
05:28 AM 47.9°F8.8°C 43.0°F6.1°C 83% 9.0 mph SSE14.5 kmh SSE 20.0 mph32.2 kmh 29.91 in1012.9 mb 0.00 in0.0 mm 0.00 in0.0 mm 0.00 in0.0 mm
05:30 AM 48.0°F8.9°C 42.8°F6.0°C 82% 9.0 mph SSE14.5 kmh SSE 20.0 mph32.2 kmh 29.91 in1012.9 mb 0.00 in0.0 mm 0.00 in0.0 mm 0.00 in0.0 mm
05:32 AM 48.0°F8.9°C 43.1°F6.2°C 83% 8.0 mph SSE12.9 kmh SSE 17.0 mph27.4 kmh 29.91 in1012.9 mb 0.00 in0.0 mm 0.00 in0.0 mm 0.00 in0.0 mm
05:34 AM 48.0°F8.9°C 42.8°F6.0°C 82% 8.0 mph SSE12.9 kmh SSE 23.0 mph37.0 kmh 29.91 in1012.9 mb 0.00 in0.0 mm 0.00 in0.0 mm 0.00 in0.0 mm
05:36 AM 48.1°F8.9°C 42.9°F6.1°C 82% 9.0 mph SSE14.5 kmh SSE 23.0 mph37.0 kmh 29.91 in1012.9 mb 0.00 in0.0 mm 0.00 in0.0 mm 0.00 in0.0 mm
05:38 AM 48.2°F9.0°C 43.0°F6.1°C 82% 9.0 mph SSE14.5 kmh SSE 23.0 mph37.0 kmh 29.91 in1012.9 mb 0.00 in0.0 mm 0.00 in0.0 mm 0.00 in0.0 mm
05:40 AM 48.1°F8.9°C 42.9°F6.1°C 82% 9.0 mph SSE14.5 kmh SSE 23.0 mph37.0 kmh 29.91 in1012.9 mb 0.00 in0.0 mm 0.00 in0.0 mm 0.00 in0.0 mm
05:42 AM 48.1°F8.9°C 42.9°F6.1°C 82% 9.0 mph SSE14.5 kmh SSE 23.0 mph37.0 kmh 29.91 in1012.9 mb 0.00 in0.0 mm 0.00 in0.0 mm 0.00 in0.0 mm
05:44 AM 48.1°F8.9°C 42.9°F6.1°C 82% 10.0 mph SSE16.1 kmh SSE 21.0 mph33.8 kmh 29.90 in1012.5 mb 0.00 in0.0 mm 0.00 in0.0 mm 0.00 in0.0 mm
05:46 AM 48.2°F9.0°C 43.0°F6.1°C 82% 10.0 mph SSE16.1 kmh SSE 19.0 mph30.6 kmh 29.90 in1012.5 mb 0.00 in0.0 mm 0.00 in0.0 mm 0.00 in0.0 mm
05:48 AM 48.2°F9.0°C 43.0°F6.1°C 82% 10.0 mph SSE16.1 kmh SSE 18.0 mph29.0 kmh 29.90 in1012.5 mb 0.00 in0.0 mm 0.00 in0.0 mm 0.00 in0.0 mm
05:50 AM 48.2°F9.0°C 43.0°F6.1°C 82% 10.0 mph S16.1 kmh S 18.0 mph29.0 kmh 29.90 in1012.5 mb 0.00 in0.0 mm 0.00 in0.0 mm 0.00 in0.0 mm
05:52 AM 48.3°F9.1°C 43.1°F6.2°C 82% 10.0 mph SSE16.1 kmh SSE 18.0 mph29.0 kmh 29.90 in1012.5 mb 0.00 in0.0 mm 0.00 in0.0 mm 0.00 in0.0 mm
05:54 AM 48.2°F9.0°C 43.0°F6.1°C 82% 9.0 mph SSE14.5 kmh SSE 18.0 mph29.0 kmh 29.90 in1012.5 mb 0.00 in0.0 mm 0.00 in0.0 mm 0.00 in0.0 mm
05:56 AM 48.2°F9.0°C 43.0°F6.1°C 82% 8.0 mph SSE12.9 kmh SSE 18.0 mph29.0 kmh 29.90 in1012.5 mb 0.00 in0.0 mm 0.00 in0.0 mm 0.00 in0.0 mm
05:58 AM 48.2°F9.0°C 43.0°F6.1°C 82% 9.0 mph SSE14.5 kmh SSE 18.0 mph29.0 kmh 29.91 in1012.9 mb 0.00 in0.0 mm 0.00 in0.0 mm 0.00 in0.0 mm
06:00 AM 48.3°F9.1°C 43.1°F6.2°C 82% 9.0 mph SSE14.5 kmh SSE 18.0 mph29.0 kmh 29.91 in1012.9 mb 0.00 in0.0 mm 0.00 in0.0 mm 0.00 in0.0 mm
06:02 AM 48.3°F9.1°C 43.1°F6.2°C 82% 9.0 mph S14.5 kmh S 18.0 mph29.0 kmh 29.91 in1012.9 mb 0.00 in0.0 mm 0.00 in0.0 mm 0.00 in0.0 mm
06:04 AM 48.3°F9.1°C 43.1°F6.2°C 82% 9.0 mph SSE14.5 kmh SSE 18.0 mph29.0 kmh 29.91 in1012.9 mb 0.00 in0.0 mm 0.00 in0.0 mm 0.00 in0.0 mm
06:06 AM 48.3°F9.1°C 43.1°F6.2°C 82% 9.0 mph S14.5 kmh S 18.0 mph29.0 kmh 29.91 in1012.9 mb 0.00 in0.0 mm 0.00 in0.0 mm 0.00 in0.0 mm
06:08 AM 48.3°F9.1°C 43.1°F6.2°C 82% 9.0 mph S14.5 kmh S 21.0 mph33.8 kmh 29.92 in1013.2 mb 0.00 in0.0 mm 0.00 in0.0 mm 0.00 in0.0 mm
06:10 AM 48.3°F9.1°C 43.1°F6.2°C 82% 10.0 mph S16.1 kmh S 21.0 mph33.8 kmh 29.92 in1013.2 mb 0.00 in0.0 mm 0.00 in0.0 mm 0.00 in0.0 mm
06:12 AM 48.3°F9.1°C 43.1°F6.2°C 82% 11.0 mph S17.7 kmh S 21.0 mph33.8 kmh 29.92 in1013.2 mb 0.00 in0.0 mm 0.00 in0.0 mm 0.00 in0.0 mm
06:14 AM 48.3°F9.1°C 43.1°F6.2°C 82% 12.0 mph S19.3 kmh S 21.0 mph33.8 kmh 29.93 in1013.5 mb 0.00 in0.0 mm 0.00 in0.0 mm 0.00 in0.0 mm
06:16 AM 48.3°F9.1°C 43.1°F6.2°C 82% 12.0 mph S19.3 kmh S 21.0 mph33.8 kmh 29.93 in1013.5 mb 0.00 in0.0 mm 0.00 in0.0 mm 0.00 in0.0 mm
06:18 AM 48.3°F9.1°C 43.1°F6.2°C 82% 13.0 mph S20.9 kmh S 21.0 mph33.8 kmh 29.92 in1013.2 mb 0.00 in0.0 mm 0.00 in0.0 mm 0.00 in0.0 mm
06:20 AM 48.3°F9.1°C 43.1°F6.2°C 82% 13.0 mph S20.9 kmh S 21.0 mph33.8 kmh 29.92 in1013.2 mb 0.00 in0.0 mm 0.00 in0.0 mm 0.00 in0.0 mm
06:22 AM 48.1°F8.9°C 43.2°F6.2°C 83% 12.0 mph S19.3 kmh S 23.0 mph37.0 kmh 29.93 in1013.5 mb 0.00 in0.0 mm 0.00 in0.0 mm 0.00 in0.0 mm
06:24 AM 47.9°F8.8°C 43.3°F6.3°C 84% 12.0 mph S19.3 kmh S 23.0 mph37.0 kmh 29.93 in1013.5 mb 0.00 in0.0 mm 0.00 in0.0 mm 0.00 in0.0 mm
06:26 AM 47.7°F8.7°C 43.4°F6.3°C 85% 12.0 mph S19.3 kmh S 23.0 mph37.0 kmh 29.93 in1013.5 mb 0.00 in0.0 mm 0.00 in0.0 mm 0.00 in0.0 mm
06:28 AM 47.4°F8.6°C 43.4°F6.3°C 86% 11.0 mph S17.7 kmh S 23.0 mph37.0 kmh 29.93 in1013.5 mb 0.00 in0.0 mm 0.00 in0.0 mm 0.00 in0.0 mm
06:30 AM 47.2°F8.4°C 43.5°F6.4°C 87% 11.0 mph S17.7 kmh S 23.0 mph37.0 kmh 29.92 in1013.2 mb 0.00 in0.0 mm 0.00 in0.0 mm 0.00 in0.0 mm
06:32 AM 47.0°F8.3°C 43.3°F6.3°C 87% 11.0 mph S17.7 kmh S 18.0 mph29.0 kmh 29.91 in1012.9 mb 0.00 in0.0 mm 0.00 in0.0 mm 0.00 in0.0 mm
06:34 AM 46.9°F8.3°C 43.5°F6.4°C 88% 10.0 mph S16.1 kmh S 20.0 mph32.2 kmh 29.92 in1013.2 mb 0.00 in0.0 mm 0.00 in0.0 mm 0.00 in0.0 mm
06:36 AM 46.8°F8.2°C 43.4°F6.3°C 88% 10.0 mph SSE16.1 kmh SSE 20.0 mph32.2 kmh 29.91 in1012.9 mb 0.00 in0.0 mm 0.00 in0.0 mm 0.00 in0.0 mm
06:38 AM 46.8°F8.2°C 43.4°F6.3°C 88% 10.0 mph SSE16.1 kmh SSE 20.0 mph32.2 kmh 29.91 in1012.9 mb 0.00 in0.0 mm 0.00 in0.0 mm 0.00 in0.0 mm
06:40 AM 46.7°F8.2°C 43.6°F6.4°C 89% 10.0 mph SSE16.1 kmh SSE 20.0 mph32.2 kmh 29.91 in1012.9 mb 0.00 in0.0 mm 0.00 in0.0 mm 0.00 in0.0 mm
06:42 AM 46.6°F8.1°C 43.5°F6.4°C 89% 9.0 mph S14.5 kmh S 20.0 mph32.2 kmh 29.91 in1012.9 mb 0.00 in0.0 mm 0.00 in0.0 mm 0.00 in0.0 mm
06:44 AM 46.5°F8.1°C 43.4°F6.3°C 89% 8.0 mph S12.9 kmh S 18.0 mph29.0 kmh 29.91 in1012.9 mb 0.00 in0.0 mm 0.00 in0.0 mm 0.00 in0.0 mm
06:46 AM 46.4°F8.0°C 43.3°F6.3°C 89% 8.0 mph S12.9 kmh S 14.0 mph22.5 kmh 29.91 in1012.9 mb 0.00 in0.0 mm 0.00 in0.0 mm 0.00 in0.0 mm
06:48 AM 46.4°F8.0°C 43.6°F6.4°C 90% 8.0 mph S12.9 kmh S 14.0 mph22.5 kmh 29.91 in1012.9 mb 0.00 in0.0 mm 0.00 in0.0 mm 0.00 in0.0 mm
06:50 AM 46.3°F7.9°C 43.5°F6.4°C 90% 8.0 mph S12.9 kmh S 18.0 mph29.0 kmh 29.91 in1012.9 mb 0.00 in0.0 mm 0.00 in0.0 mm 0.00 in0.0 mm
06:52 AM 46.4°F8.0°C 43.6°F6.4°C 90% 9.0 mph S14.5 kmh S 18.0 mph29.0 kmh 29.91 in1012.9 mb 0.00 in0.0 mm 0.00 in0.0 mm 0.00 in0.0 mm
06:54 AM 46.4°F8.0°C 43.6°F6.4°C 90% 10.0 mph S16.1 kmh S 20.0 mph32.2 kmh 29.91 in1012.9 mb 0.00 in0.0 mm 0.00 in0.0 mm 0.00 in0.0 mm
06:56 AM 46.4°F8.0°C 43.6°F6.4°C 90% 10.0 mph S16.1 kmh S 20.0 mph32.2 kmh 29.90 in1012.5 mb 0.00 in0.0 mm 0.00 in0.0 mm 0.00 in0.0 mm
06:58 AM 46.4°F8.0°C 43.9°F6.6°C 91% 10.0 mph SSE16.1 kmh SSE 23.0 mph37.0 kmh 29.91 in1012.9 mb 0.00 in0.0 mm 0.00 in0.0 mm 0.00 in0.0 mm
07:00 AM 46.4°F8.0°C 43.9°F6.6°C 91% 11.0 mph S17.7 kmh S 23.0 mph37.0 kmh 29.91 in1012.9 mb 0.00 in0.0 mm 0.00 in0.0 mm 0.00 in0.0 mm
07:02 AM 46.3°F7.9°C 43.8°F6.6°C 91% 11.0 mph S17.7 kmh S 23.0 mph37.0 kmh 29.90 in1012.5 mb 0.00 in0.0 mm 0.00 in0.0 mm 0.00 in0.0 mm
07:04 AM 46.3°F7.9°C 43.8°F6.6°C 91% 12.0 mph S19.3 kmh S 23.0 mph37.0 kmh 29.90 in1012.5 mb 0.00 in0.0 mm 0.00 in0.0 mm 0.00 in0.0 mm
07:06 AM 46.3°F7.9°C 43.8°F6.6°C 91% 12.0 mph S19.3 kmh S 23.0 mph37.0 kmh 29.89 in1012.2 mb 0.00 in0.0 mm 0.00 in0.0 mm 0.00 in0.0 mm
07:08 AM 46.2°F7.9°C 43.7°F6.5°C 91% 11.0 mph S17.7 kmh S 23.0 mph37.0 kmh 29.89 in1012.2 mb 0.00 in0.0 mm 0.00 in0.0 mm 0.00 in0.0 mm
07:12 AM 46.1°F7.8°C 43.9°F6.6°C 92% 11.0 mph S17.7 kmh S 12.0 mph19.3 kmh 29.89 in1012.2 mb 0.00 in0.0 mm 0.00 in0.0 mm 0.00 in0.0 mm
07:14 AM 46.1°F7.8°C 43.9°F6.6°C 92% 10.0 mph SSE16.1 kmh SSE 21.0 mph33.8 kmh 29.89 in1012.2 mb 0.00 in0.0 mm 0.00 in0.0 mm 0.00 in0.0 mm
07:16 AM 46.1°F7.8°C 43.9°F6.6°C 92% 10.0 mph SSE16.1 kmh SSE 21.0 mph33.8 kmh 29.89 in1012.2 mb 0.00 in0.0 mm 0.00 in0.0 mm 0.00 in0.0 mm
07:18 AM 46.0°F7.8°C 43.8°F6.6°C 92% 10.0 mph SSE16.1 kmh SSE 21.0 mph33.8 kmh 29.88 in1011.9 mb 0.00 in0.0 mm 0.00 in0.0 mm 0.00 in0.0 mm
07:20 AM 46.0°F7.8°C 43.8°F6.6°C 92% 10.0 mph SSE16.1 kmh SSE 21.0 mph33.8 kmh 29.88 in1011.9 mb 0.00 in0.0 mm 0.00 in0.0 mm 0.00 in0.0 mm
07:22 AM 45.9°F7.7°C 43.7°F6.5°C 92% 11.0 mph SSE17.7 kmh SSE 21.0 mph33.8 kmh 29.88 in1011.9 mb 0.00 in0.0 mm 0.00 in0.0 mm 0.00 in0.0 mm
07:24 AM 45.9°F7.7°C 43.7°F6.5°C 92% 10.0 mph SSE16.1 kmh SSE 19.0 mph30.6 kmh 29.88 in1011.9 mb 0.00 in0.0 mm 0.00 in0.0 mm 0.00 in0.0 mm
07:26 AM 45.9°F7.7°C 43.7°F6.5°C 92% 10.0 mph SSE16.1 kmh SSE 25.0 mph40.2 kmh 29.87 in1011.5 mb 0.00 in0.0 mm 0.00 in0.0 mm 0.00 in0.0 mm
07:28 AM 45.9°F7.7°C 43.7°F6.5°C 92% 11.0 mph SSE17.7 kmh SSE 25.0 mph40.2 kmh 29.87 in1011.5 mb 0.00 in0.0 mm 0.00 in0.0 mm 0.00 in0.0 mm
07:30 AM 45.9°F7.7°C 44.0°F6.7°C 93% 11.0 mph SSE17.7 kmh SSE 25.0 mph40.2 kmh 29.86 in1011.2 mb 0.00 in0.0 mm 0.00 in0.0 mm 0.00 in0.0 mm
07:32 AM 45.9°F7.7°C 44.0°F6.7°C 93% 11.0 mph SSE17.7 kmh SSE 25.0 mph40.2 kmh 29.86 in1011.2 mb 0.00 in0.0 mm 0.00 in0.0 mm 0.00 in0.0 mm
07:34 AM 45.9°F7.7°C 44.0°F6.7°C 93% 12.0 mph SSE19.3 kmh SSE 25.0 mph40.2 kmh 29.86 in1011.2 mb 0.00 in0.0 mm 0.00 in0.0 mm 0.00 in0.0 mm
07:36 AM 45.9°F7.7°C 44.0°F6.7°C 93% 12.0 mph SSE19.3 kmh SSE 25.0 mph40.2 kmh 29.86 in1011.2 mb 0.00 in0.0 mm 0.00 in0.0 mm 0.00 in0.0 mm
07:38 AM 45.9°F7.7°C 44.0°F6.7°C 93% 12.0 mph SSE19.3 kmh SSE 25.0 mph40.2 kmh 29.86 in1011.2 mb 0.00 in0.0 mm 0.00 in0.0 mm 0.00 in0.0 mm
07:40 AM 45.9°F7.7°C 44.0°F6.7°C 93% 12.0 mph SSE19.3 kmh SSE 23.0 mph37.0 kmh 29.86 in1011.2 mb 0.00 in0.0 mm 0.00 in0.0 mm 0.00 in0.0 mm
07:42 AM 45.9°F7.7°C 44.0°F6.7°C 93% 11.0 mph SSE17.7 kmh SSE 23.0 mph37.0 kmh 29.86 in1011.2 mb 0.00 in0.0 mm 0.00 in0.0 mm 0.00 in0.0 mm
07:44 AM 45.9°F7.7°C 44.0°F6.7°C 93% 11.0 mph SSE17.7 kmh SSE 23.0 mph37.0 kmh 29.86 in1011.2 mb 0.00 in0.0 mm 0.00 in0.0 mm 0.00 in0.0 mm
07:46 AM 45.9°F7.7°C 44.0°F6.7°C 93% 12.0 mph SSE19.3 kmh SSE 23.0 mph37.0 kmh 29.86 in1011.2 mb 0.00 in0.0 mm 0.00 in0.0 mm 0.00 in0.0 mm
07:48 AM 45.9°F7.7°C 44.0°F6.7°C 93% 11.0 mph SSE17.7 kmh SSE 23.0 mph37.0 kmh 29.86 in1011.2 mb 0.00 in0.0 mm 0.00 in0.0 mm 0.00 in0.0 mm
07:50 AM 45.9°F7.7°C 44.0°F6.7°C 93% 11.0 mph SSE17.7 kmh SSE 23.0 mph37.0 kmh 29.86 in1011.2 mb 0.00 in0.0 mm 0.00 in0.0 mm 0.00 in0.0 mm
07:52 AM 45.9°F7.7°C 44.0°F6.7°C 93% 11.0 mph S17.7 kmh S 23.0 mph37.0 kmh 29.86 in1011.2 mb 0.00 in0.0 mm 0.00 in0.0 mm 0.00 in0.0 mm
07:54 AM 45.9°F7.7°C 44.3°F6.8°C 94% 10.0 mph S16.1 kmh S 23.0 mph37.0 kmh 29.86 in1011.2 mb 0.00 in0.0 mm 0.00 in0.0 mm 0.00 in0.0 mm
07:56 AM 45.8°F7.7°C 44.2°F6.8°C 94% 11.0 mph S17.7 kmh S 23.0 mph37.0 kmh 29.86 in1011.2 mb 0.00 in0.0 mm 0.00 in0.0 mm 0.00 in0.0 mm
07:58 AM 45.8°F7.7°C 44.2°F6.8°C 94% 11.0 mph S17.7 kmh S 22.0 mph35.4 kmh 29.86 in1011.2 mb 0.00 in0.0 mm 0.00 in0.0 mm 0.00 in0.0 mm
08:00 AM 45.8°F7.7°C 44.2°F6.8°C 94% 11.0 mph SSE17.7 kmh SSE 22.0 mph35.4 kmh 29.86 in1011.2 mb 0.00 in0.0 mm 0.00 in0.0 mm 0.00 in0.0 mm
08:02 AM 45.8°F7.7°C 44.2°F6.8°C 94% 12.0 mph S19.3 kmh S 24.0 mph38.6 kmh 29.86 in1011.2 mb 0.00 in0.0 mm 0.00 in0.0 mm 0.00 in0.0 mm
08:04 AM 45.8°F7.7°C 44.2°F6.8°C 94% 13.0 mph S20.9 kmh S 24.0 mph38.6 kmh 29.86 in1011.2 mb 0.00 in0.0 mm 0.00 in0.0 mm 0.00 in0.0 mm
08:06 AM 45.9°F7.7°C 44.3°F6.8°C 94% 14.0 mph S22.5 kmh S 24.0 mph38.6 kmh 29.86 in1011.2 mb 0.00 in0.0 mm 0.00 in0.0 mm 0.00 in0.0 mm
08:08 AM 45.9°F7.7°C 44.3°F6.8°C 94% 15.0 mph S24.1 kmh S 24.0 mph38.6 kmh 29.86 in1011.2 mb 0.00 in0.0 mm 0.00 in0.0 mm 0.00 in0.0 mm
08:10 AM 45.9°F7.7°C 44.3°F6.8°C 94% 15.0 mph S24.1 kmh S 24.0 mph38.6 kmh 29.86 in1011.2 mb 0.00 in0.0 mm 0.00 in0.0 mm 0.00 in0.0 mm
08:12 AM 45.9°F7.7°C 44.3°F6.8°C 94% 15.0 mph S24.1 kmh S 23.0 mph37.0 kmh 29.86 in1011.2 mb 0.00 in0.0 mm 0.00 in0.0 mm 0.00 in0.0 mm
08:14 AM 45.9°F7.7°C 44.3°F6.8°C 94% 14.0 mph S22.5 kmh S 23.0 mph37.0 kmh 29.85 in1010.8 mb 0.00 in0.0 mm 0.00 in0.0 mm 0.00 in0.0 mm
08:16 AM 45.9°F7.7°C 44.3°F6.8°C 94% 13.0 mph S20.9 kmh S 22.0 mph35.4 kmh 29.85 in1010.8 mb 0.00 in0.0 mm 0.00 in0.0 mm 0.00 in0.0 mm
08:18 AM 45.9°F7.7°C 44.3°F6.8°C 94% 13.0 mph S20.9 kmh S 23.0 mph37.0 kmh 29.85 in1010.8 mb 0.00 in0.0 mm 0.00 in0.0 mm 0.00 in0.0 mm
08:20 AM 46.0°F7.8°C 44.4°F6.9°C 94% 13.0 mph S20.9 kmh S 23.0 mph37.0 kmh 29.85 in1010.8 mb 0.00 in0.0 mm 0.00 in0.0 mm 0.00 in0.0 mm
08:22 AM 46.0°F7.8°C 44.4°F6.9°C 94% 13.0 mph S20.9 kmh S 23.0 mph37.0 kmh 29.86 in1011.2 mb 0.00 in0.0 mm 0.00 in0.0 mm 0.00 in0.0 mm
08:24 AM 46.1°F7.8°C 44.5°F6.9°C 94% 13.0 mph S20.9 kmh S 31.0 mph49.9 kmh 29.85 in1010.8 mb 0.00 in0.0 mm 0.00 in0.0 mm 0.00 in0.0 mm
08:26 AM 46.2°F7.9°C 44.6°F7.0°C 94% 14.0 mph S22.5 kmh S 31.0 mph49.9 kmh 29.86 in1011.2 mb 0.00 in0.0 mm 0.00 in0.0 mm 0.00 in0.0 mm
08:28 AM 46.3°F7.9°C 44.7°F7.1°C 94% 14.0 mph S22.5 kmh S 31.0 mph49.9 kmh 29.85 in1010.8 mb 0.00 in0.0 mm 0.00 in0.0 mm 0.00 in0.0 mm
08:30 AM 46.4°F8.0°C 44.8°F7.1°C 94% 14.0 mph S22.5 kmh S 31.0 mph49.9 kmh 29.86 in1011.2 mb 0.00 in0.0 mm 0.00 in0.0 mm 0.00 in0.0 mm
08:32 AM 46.6°F8.1°C 45.0°F7.2°C 94% 15.0 mph S24.1 kmh S 31.0 mph49.9 kmh 29.86 in1011.2 mb 0.00 in0.0 mm 0.00 in0.0 mm 0.00 in0.0 mm
08:34 AM 46.7°F8.2°C 45.1°F7.3°C 94% 15.0 mph S24.1 kmh S 22.0 mph35.4 kmh 29.86 in1011.2 mb 0.00 in0.0 mm 0.00 in0.0 mm 0.00 in0.0 mm
08:36 AM 46.8°F8.2°C 45.2°F7.3°C 94% 14.0 mph S22.5 kmh S 22.0 mph35.4 kmh 29.87 in1011.5 mb 0.00 in0.0 mm 0.00 in0.0 mm 0.00 in0.0 mm
08:38 AM 46.9°F8.3°C 45.3°F7.4°C 94% 14.0 mph S22.5 kmh S 22.0 mph35.4 kmh 29.87 in1011.5 mb 0.00 in0.0 mm 0.00 in0.0 mm 0.00 in0.0 mm
08:40 AM 47.0°F8.3°C 45.4°F7.4°C 94% 13.0 mph S20.9 kmh S 22.0 mph35.4 kmh 29.86 in1011.2 mb 0.00 in0.0 mm 0.00 in0.0 mm 0.00 in0.0 mm
08:42 AM 47.0°F8.3°C 45.4°F7.4°C 94% 13.0 mph S20.9 kmh S 21.0 mph33.8 kmh 29.86 in1011.2 mb 0.00 in0.0 mm 0.00 in0.0 mm 0.00 in0.0 mm
08:44 AM 47.1°F8.4°C 45.5°F7.5°C 94% 13.0 mph S20.9 kmh S 21.0 mph33.8 kmh 29.85 in1010.8 mb 0.00 in0.0 mm 0.00 in0.0 mm 0.00 in0.0 mm
08:46 AM 47.2°F8.4°C 45.6°F7.6°C 94% 14.0 mph S22.5 kmh S 25.0 mph40.2 kmh 29.84 in1010.5 mb 0.00 in0.0 mm 0.00 in0.0 mm 0.00 in0.0 mm
08:48 AM 47.4°F8.6°C 45.8°F7.7°C 94% 14.0 mph S22.5 kmh S 25.0 mph40.2 kmh 29.84 in1010.5 mb 0.00 in0.0 mm 0.00 in0.0 mm 0.00 in0.0 mm
08:50 AM 47.4°F8.6°C 45.8°F7.7°C 94% 14.0 mph S22.5 kmh S 25.0 mph40.2 kmh 29.84 in1010.5 mb 0.00 in0.0 mm 0.00 in0.0 mm 0.00 in0.0 mm
08:52 AM 47.5°F8.6°C 45.9°F7.7°C 94% 13.0 mph S20.9 kmh S 25.0 mph40.2 kmh 29.84 in1010.5 mb 0.00 in0.0 mm 0.00 in0.0 mm 0.00 in0.0 mm
08:54 AM 47.7°F8.7°C 46.1°F7.8°C 94% 13.0 mph S20.9 kmh S 25.0 mph40.2 kmh 29.84 in1010.5 mb 0.00 in0.0 mm 0.00 in0.0 mm 0.00 in0.0 mm
08:56 AM 47.9°F8.8°C 46.3°F7.9°C 94% 12.0 mph S19.3 kmh S 21.0 mph33.8 kmh 29.83 in1010.2 mb 0.00 in0.0 mm 0.00 in0.0 mm 0.00 in0.0 mm
08:58 AM 48.1°F8.9°C 46.5°F8.1°C 94% 13.0 mph S20.9 kmh S 21.0 mph33.8 kmh 29.83 in1010.2 mb 0.00 in0.0 mm 0.00 in0.0 mm 0.00 in0.0 mm
09:00 AM 48.2°F9.0°C 46.6°F8.1°C 94% 13.0 mph SSE20.9 kmh SSE 21.0 mph33.8 kmh 29.83 in1010.2 mb 0.00 in0.0 mm 0.00 in0.0 mm 0.00 in0.0 mm
09:02 AM 48.3°F9.1°C 46.7°F8.2°C 94% 13.0 mph SSE20.9 kmh SSE 22.0 mph35.4 kmh 29.83 in1010.2 mb 0.00 in0.0 mm 0.00 in0.0 mm 0.00 in0.0 mm
09:04 AM 48.5°F9.2°C 46.9°F8.3°C 94% 13.0 mph SSE20.9 kmh SSE 23.0 mph37.0 kmh 29.83 in1010.2 mb 0.00 in0.0 mm 0.00 in0.0 mm 0.00 in0.0 mm
09:06 AM 48.5°F9.2°C 46.9°F8.3°C 94% 14.0 mph S22.5 kmh S 23.0 mph37.0 kmh 29.83 in1010.2 mb 0.00 in0.0 mm 0.00 in0.0 mm 0.00 in0.0 mm
09:08 AM 48.6°F9.2°C 46.7°F8.2°C 93% 13.0 mph S20.9 kmh S 23.0 mph37.0 kmh 29.83 in1010.2 mb 0.00 in0.0 mm 0.00 in0.0 mm 0.00 in0.0 mm
09:10 AM 48.7°F9.3°C 46.8°F8.2°C 93% 14.0 mph S22.5 kmh S 23.0 mph37.0 kmh 29.83 in1010.2 mb 0.00 in0.0 mm 0.00 in0.0 mm 0.00 in0.0 mm
09:12 AM 48.8°F9.3°C 46.9°F8.3°C 93% 14.0 mph S22.5 kmh S 23.0 mph37.0 kmh 29.84 in1010.5 mb 0.00 in0.0 mm 0.00 in0.0 mm 0.00 in0.0 mm
09:14 AM 48.9°F9.4°C 47.0°F8.3°C 93% 13.0 mph S20.9 kmh S 25.0 mph40.2 kmh 29.83 in1010.2 mb 0.00 in0.0 mm 0.00 in0.0 mm 0.00 in0.0 mm
09:16 AM 48.9°F9.4°C 47.0°F8.3°C 93% 14.0 mph S22.5 kmh S 25.0 mph40.2 kmh 29.84 in1010.5 mb 0.00 in0.0 mm 0.00 in0.0 mm 0.00 in0.0 mm
09:18 AM 49.0°F9.4°C 47.1°F8.4°C 93% 14.0 mph S22.5 kmh S 25.0 mph40.2 kmh 29.84 in1010.5 mb 0.00 in0.0 mm 0.00 in0.0 mm 0.00 in0.0 mm
09:20 AM 49.0°F9.4°C 47.1°F8.4°C 93% 15.0 mph S24.1 kmh S 25.0 mph40.2 kmh 29.83 in1010.2 mb 0.00 in0.0 mm 0.00 in0.0 mm 0.00 in0.0 mm
09:22 AM 49.0°F9.4°C 47.1°F8.4°C 93% 15.0 mph S24.1 kmh S 25.0 mph40.2 kmh 29.83 in1010.2 mb 0.00 in0.0 mm 0.00 in0.0 mm 0.00 in0.0 mm
09:24 AM 49.0°F9.4°C 47.1°F8.4°C 93% 15.0 mph S24.1 kmh S 25.0 mph40.2 kmh 29.84 in1010.5 mb 0.00 in0.0 mm 0.00 in0.0 mm 0.00 in0.0 mm
09:26 AM 49.0°F9.4°C 47.1°F8.4°C 93% 15.0 mph S24.1 kmh S 25.0 mph40.2 kmh 29.83 in1010.2 mb 0.00 in0.0 mm 0.00 in0.0 mm 0.00 in0.0 mm
09:28 AM 49.1°F9.5°C 47.2°F8.4°C 93% 15.0 mph S24.1 kmh S 23.0 mph37.0 kmh 29.83 in1010.2 mb 0.00 in0.0 mm 0.00 in0.0 mm 0.00 in0.0 mm
09:30 AM 49.1°F9.5°C 47.2°F8.4°C 93% 14.0 mph S22.5 kmh S 23.0 mph37.0 kmh 29.83 in1010.2 mb 0.00 in0.0 mm 0.00 in0.0 mm 0.00 in0.0 mm
09:32 AM 49.1°F9.5°C 47.2°F8.4°C 93% 14.0 mph S22.5 kmh S 23.0 mph37.0 kmh 29.83 in1010.2 mb 0.00 in0.0 mm 0.00 in0.0 mm 0.00 in0.0 mm
09:34 AM 49.1°F9.5°C 47.2°F8.4°C 93% 14.0 mph S22.5 kmh S 23.0 mph37.0 kmh 29.84 in1010.5 mb 0.00 in0.0 mm 0.00 in0.0 mm 0.00 in0.0 mm
09:36 AM 49.1°F9.5°C 47.2°F8.4°C 93% 14.0 mph S22.5 kmh S 23.0 mph37.0 kmh 29.83 in1010.2 mb 0.00 in0.0 mm 0.00 in0.0 mm 0.00 in0.0 mm
09:38 AM 49.2°F9.6°C 47.3°F8.5°C 93% 13.0 mph S20.9 kmh S 23.0 mph37.0 kmh 29.83 in1010.2 mb 0.00 in0.0 mm 0.00 in0.0 mm 0.00 in0.0 mm
09:40 AM 49.2°F9.6°C 47.3°F8.5°C 93% 13.0 mph S20.9 kmh S 23.0 mph37.0 kmh 29.84 in1010.5 mb 0.00 in0.0 mm 0.00 in0.0 mm 0.00 in0.0 mm
09:42 AM 49.2°F9.6°C 47.3°F8.5°C 93% 13.0 mph S20.9 kmh S 23.0 mph37.0 kmh 29.84 in1010.5 mb 0.00 in0.0 mm 0.00 in0.0 mm 0.00 in0.0 mm
09:44 AM 49.3°F9.6°C 47.4°F8.6°C 93% 14.0 mph S22.5 kmh S 27.0 mph43.5 kmh 29.83 in1010.2 mb 0.00 in0.0 mm 0.00 in0.0 mm 0.00 in0.0 mm
09:46 AM 49.3°F9.6°C 47.4°F8.6°C 93% 14.0 mph S22.5 kmh S 27.0 mph43.5 kmh 29.83 in1010.2 mb 0.00 in0.0 mm 0.00 in0.0 mm 0.00 in0.0 mm
09:48 AM 49.4°F9.7°C 47.5°F8.6°C 93% 15.0 mph S24.1 kmh S 27.0 mph43.5 kmh 29.83 in1010.2 mb 0.00 in0.0 mm 0.00 in0.0 mm 0.00 in0.0 mm
09:50 AM 49.5°F9.7°C 47.6°F8.7°C 93% 15.0 mph S24.1 kmh S 27.0 mph43.5 kmh 29.83 in1010.2 mb 0.00 in0.0 mm 0.00 in0.0 mm 0.00 in0.0 mm
09:52 AM 49.5°F9.7°C 47.6°F8.7°C 93% 15.0 mph S24.1 kmh S 27.0 mph43.5 kmh 29.83 in1010.2 mb 0.00 in0.0 mm 0.00 in0.0 mm 0.00 in0.0 mm
09:54 AM 49.5°F9.7°C 47.6°F8.7°C 93% 16.0 mph S25.7 kmh S 24.0 mph38.6 kmh 29.83 in1010.2 mb 0.00 in0.0 mm 0.00 in0.0 mm 0.19 in4.8 mm
09:56 AM 49.6°F9.8°C 47.9°F8.8°C 94% 16.0 mph S25.7 kmh S 24.0 mph38.6 kmh 29.83 in1010.2 mb 0.00 in0.0 mm 0.00 in0.0 mm 0.19 in4.8 mm
09:58 AM 49.6°F9.8°C 47.9°F8.8°C 94% 16.0 mph S25.7 kmh S 25.0 mph40.2 kmh 29.83 in1010.2 mb 0.00 in0.0 mm 0.00 in0.0 mm 0.19 in4.8 mm
10:00 AM 49.6°F9.8°C 47.9°F8.8°C 94% 17.0 mph S27.4 kmh S 25.0 mph40.2 kmh 29.83 in1010.2 mb 0.00 in0.0 mm 0.00 in0.0 mm 0.19 in4.8 mm
10:02 AM 49.6°F9.8°C 47.9°F8.8°C 94% 17.0 mph S27.4 kmh S 25.0 mph40.2 kmh 29.83 in1010.2 mb 0.00 in0.0 mm 0.00 in0.0 mm 0.19 in4.8 mm
10:04 AM 49.7°F9.8°C 48.0°F8.9°C 94% 16.0 mph S25.7 kmh S 25.0 mph40.2 kmh 29.83 in1010.2 mb 0.00 in0.0 mm 0.00 in0.0 mm 0.19 in4.8 mm
10:06 AM 49.7°F9.8°C 48.0°F8.9°C 94% 17.0 mph S27.4 kmh S 25.0 mph40.2 kmh 29.83 in1010.2 mb 0.00 in0.0 mm 0.00 in0.0 mm 0.19 in4.8 mm
10:08 AM 49.7°F9.8°C 48.0°F8.9°C 94% 16.0 mph S25.7 kmh S 24.0 mph38.6 kmh 29.83 in1010.2 mb 0.00 in0.0 mm 0.00 in0.0 mm 0.19 in4.8 mm
10:10 AM 49.7°F9.8°C 48.0°F8.9°C 94% 17.0 mph S27.4 kmh S 25.0 mph40.2 kmh 29.82 in1009.8 mb 0.00 in0.0 mm 0.00 in0.0 mm 0.19 in4.8 mm
10:12 AM 49.7°F9.8°C 48.0°F8.9°C 94% 17.0 mph S27.4 kmh S 25.0 mph40.2 kmh 29.83 in1010.2 mb 0.00 in0.0 mm 0.00 in0.0 mm 0.19 in4.8 mm
10:14 AM 49.7°F9.8°C 48.0°F8.9°C 94% 17.0 mph S27.4 kmh S 25.0 mph40.2 kmh 29.82 in1009.8 mb 0.00 in0.0 mm 0.00 in0.0 mm 0.19 in4.8 mm
10:16 AM 49.7°F9.8°C 48.0°F8.9°C 94% 16.0 mph S25.7 kmh S 25.0 mph40.2 kmh 29.82 in1009.8 mb 0.00 in0.0 mm 0.00 in0.0 mm 0.19 in4.8 mm
10:18 AM 49.7°F9.8°C 48.0°F8.9°C 94% 16.0 mph S25.7 kmh S 25.0 mph40.2 kmh 29.82 in1009.8 mb 0.00 in0.0 mm 0.00 in0.0 mm 0.19 in4.8 mm
10:20 AM 49.8°F9.9°C 48.1°F8.9°C 94% 16.0 mph S25.7 kmh S 24.0 mph38.6 kmh 29.82 in1009.8 mb 0.00 in0.0 mm 0.00 in0.0 mm 0.19 in4.8 mm
10:22 AM 49.9°F9.9°C 48.2°F9.0°C 94% 15.0 mph S24.1 kmh S 22.0 mph35.4 kmh 29.82 in1009.8 mb 0.00 in0.0 mm 0.00 in0.0 mm 0.19 in4.8 mm
10:24 AM 50.0°F10.0°C 48.3°F9.1°C 94% 15.0 mph S24.1 kmh S 24.0 mph38.6 kmh 29.82 in1009.8 mb 0.00 in0.0 mm 0.00 in0.0 mm 0.19 in4.8 mm
10:26 AM 50.1°F10.1°C 48.4°F9.1°C 94% 16.0 mph S25.7 kmh S 24.0 mph38.6 kmh 29.82 in1009.8 mb 0.00 in0.0 mm 0.00 in0.0 mm 0.19 in4.8 mm
10:28 AM 50.2°F10.1°C 48.5°F9.2°C 94% 16.0 mph S25.7 kmh S 26.0 mph41.8 kmh 29.82 in1009.8 mb 0.00 in0.0 mm 0.00 in0.0 mm 0.19 in4.8 mm
10:30 AM 50.2°F10.1°C 48.5°F9.2°C 94% 16.0 mph S25.7 kmh S 26.0 mph41.8 kmh 29.82 in1009.8 mb 0.00 in0.0 mm 0.00 in0.0 mm 0.19 in4.8 mm
10:32 AM 50.3°F10.2°C 48.6°F9.2°C 94% 17.0 mph S27.4 kmh S 26.0 mph41.8 kmh 29.82 in1009.8 mb 0.00 in0.0 mm 0.00 in0.0 mm 0.19 in4.8 mm
10:34 AM 50.3°F10.2°C 48.6°F9.2°C 94% 16.0 mph S25.7 kmh S 26.0 mph41.8 kmh 29.82 in1009.8 mb 0.00 in0.0 mm 0.00 in0.0 mm 0.19 in4.8 mm
10:36 AM 50.3°F10.2°C 48.6°F9.2°C 94% 16.0 mph S25.7 kmh S 26.0 mph41.8 kmh 29.81 in1009.5 mb 0.00 in0.0 mm 0.00 in0.0 mm 0.19 in4.8 mm
10:38 AM 50.4°F10.2°C 48.7°F9.3°C 94% 15.0 mph S24.1 kmh S 24.0 mph38.6 kmh 29.82 in1009.8 mb 0.00 in0.0 mm 0.00 in0.0 mm 0.19 in4.8 mm
10:40 AM 50.4°F10.2°C 48.7°F9.3°C 94% 15.0 mph S24.1 kmh S 24.0 mph38.6 kmh 29.82 in1009.8 mb 0.00 in0.0 mm 0.00 in0.0 mm 0.19 in4.8 mm
10:42 AM 50.5°F10.3°C 48.8°F9.3°C 94% 15.0 mph S24.1 kmh S 24.0 mph38.6 kmh 29.82 in1009.8 mb 0.00 in0.0 mm 0.00 in0.0 mm 0.19 in4.8 mm
10:44 AM 50.5°F10.3°C 48.8°F9.3°C 94% 15.0 mph S24.1 kmh S 24.0 mph38.6 kmh 29.82 in1009.8 mb 0.00 in0.0 mm 0.00 in0.0 mm 0.19 in4.8 mm
10:46 AM 50.6°F10.3°C 48.9°F9.4°C 94% 14.0 mph S22.5 kmh S 24.0 mph38.6 kmh 29.81 in1009.5 mb 0.00 in0.0 mm 0.00 in0.0 mm 0.19 in4.8 mm
10:48 AM 50.7°F10.4°C 49.0°F9.4°C 94% 15.0 mph S24.1 kmh S 21.0 mph33.8 kmh 29.81 in1009.5 mb 0.00 in0.0 mm 0.00 in0.0 mm 0.19 in4.8 mm
10:50 AM 50.7°F10.4°C 49.0°F9.4°C 94% 15.0 mph S24.1 kmh S 21.0 mph33.8 kmh 29.80 in1009.1 mb 0.00 in0.0 mm 0.00 in0.0 mm 0.19 in4.8 mm
10:52 AM 50.8°F10.4°C 49.1°F9.5°C 94% 15.0 mph S24.1 kmh S 23.0 mph37.0 kmh 29.80 in1009.1 mb 0.00 in0.0 mm 0.00 in0.0 mm 0.19 in4.8 mm
10:54 AM 50.9°F10.5°C 49.2°F9.6°C 94% 16.0 mph S25.7 kmh S 23.0 mph37.0 kmh 29.80 in1009.1 mb 0.00 in0.0 mm 0.00 in0.0 mm 0.19 in4.8 mm
10:56 AM 51.0°F10.6°C 49.3°F9.6°C 94% 16.0 mph S25.7 kmh S 23.0 mph37.0 kmh 29.80 in1009.1 mb 0.00 in0.0 mm 0.00 in0.0 mm 0.19 in4.8 mm
10:58 AM 51.1°F10.6°C 49.4°F9.7°C 94% 16.0 mph S25.7 kmh S 23.0 mph37.0 kmh 29.80 in1009.1 mb 0.00 in0.0 mm 0.00 in0.0 mm 0.19 in4.8 mm
11:00 AM 51.3°F10.7°C 49.6°F9.8°C 94% 16.0 mph S25.7 kmh S 23.0 mph37.0 kmh 29.79 in1008.8 mb 0.00 in0.0 mm 0.00 in0.0 mm 0.19 in4.8 mm
11:02 AM 51.4°F10.8°C 49.7°F9.8°C 94% 16.0 mph S25.7 kmh S 22.0 mph35.4 kmh 29.79 in1008.8 mb 0.00 in0.0 mm 0.00 in0.0 mm 0.19 in4.8 mm
11:04 AM 51.5°F10.8°C 49.8°F9.9°C 94% 16.0 mph S25.7 kmh S 22.0 mph35.4 kmh 29.79 in1008.8 mb 0.00 in0.0 mm 0.00 in0.0 mm 0.19 in4.8 mm
11:06 AM 51.5°F10.8°C 49.8°F9.9°C 94% 16.0 mph S25.7 kmh S 24.0 mph38.6 kmh 29.80 in1009.1 mb 0.00 in0.0 mm 0.00 in0.0 mm 0.19 in4.8 mm
11:08 AM 51.6°F10.9°C 49.9°F9.9°C 94% 16.0 mph S25.7 kmh S 24.0 mph38.6 kmh 29.80 in1009.1 mb 0.00 in0.0 mm 0.00 in0.0 mm 0.19 in4.8 mm
11:10 AM 51.6°F10.9°C 49.9°F9.9°C 94% 16.0 mph S25.7 kmh S 24.0 mph38.6 kmh 29.80 in1009.1 mb 0.00 in0.0 mm 0.00 in0.0 mm 0.19 in4.8 mm
11:12 AM 51.6°F10.9°C 49.9°F9.9°C 94% 16.0 mph S25.7 kmh S 24.0 mph38.6 kmh 29.80 in1009.1 mb 0.00 in0.0 mm 0.00 in0.0 mm 0.19 in4.8 mm
11:14 AM 51.7°F10.9°C 50.0°F10.0°C 94% 16.0 mph S25.7 kmh S 24.0 mph38.6 kmh 29.79 in1008.8 mb 0.00 in0.0 mm 0.00 in0.0 mm 0.19 in4.8 mm
11:16 AM 51.8°F11.0°C 50.1°F10.1°C 94% 16.0 mph S25.7 kmh S 23.0 mph37.0 kmh 29.79 in1008.8 mb 0.00 in0.0 mm 0.00 in0.0 mm 0.19 in4.8 mm
11:18 AM 51.7°F10.9°C 50.0°F10.0°C 94% 16.0 mph S25.7 kmh S 23.0 mph37.0 kmh 29.79 in1008.8 mb 0.00 in0.0 mm 0.00 in0.0 mm 0.19 in4.8 mm
11:20 AM 51.8°F11.0°C 50.1°F10.1°C 94% 16.0 mph S25.7 kmh S 23.0 mph37.0 kmh 29.79 in1008.8 mb 0.00 in0.0 mm 0.00 in0.0 mm 0.19 in4.8 mm
11:22 AM 51.7°F10.9°C 50.0°F10.0°C 94% 16.0 mph S25.7 kmh S 23.0 mph37.0 kmh 29.79 in1008.8 mb 0.00 in0.0 mm 0.00 in0.0 mm 0.19 in4.8 mm
11:24 AM 51.7°F10.9°C 50.0°F10.0°C 94% 16.0 mph S25.7 kmh S 23.0 mph37.0 kmh 29.79 in1008.8 mb 0.00 in0.0 mm 0.00 in0.0 mm 0.19 in4.8 mm
11:26 AM 51.7°F10.9°C 50.0°F10.0°C 94% 16.0 mph S25.7 kmh S 22.0 mph35.4 kmh 29.79 in1008.8 mb 0.00 in0.0 mm 0.00 in0.0 mm 0.19 in4.8 mm
11:28 AM 51.7°F10.9°C 50.0°F10.0°C 94% 16.0 mph S25.7 kmh S 23.0 mph37.0 kmh 29.79 in1008.8 mb 0.00 in0.0 mm 0.00 in0.0 mm 0.19 in4.8 mm
11:30 AM 51.7°F10.9°C 50.0°F10.0°C 94% 16.0 mph S25.7 kmh S 23.0 mph37.0 kmh 29.79 in1008.8 mb 0.00 in0.0 mm 0.00 in0.0 mm 0.19 in4.8 mm
11:32 AM 51.7°F10.9°C 50.0°F10.0°C 94% 16.0 mph S25.7 kmh S 23.0 mph37.0 kmh 29.79 in1008.8 mb 0.00 in0.0 mm 0.00 in0.0 mm 0.19 in4.8 mm
11:34 AM 51.7°F10.9°C 50.0°F10.0°C 94% 16.0 mph S25.7 kmh S 23.0 mph37.0 kmh 29.79 in1008.8 mb 0.00 in0.0 mm 0.00 in0.0 mm 0.19 in4.8 mm
11:36 AM 51.7°F10.9°C 50.0°F10.0°C 94% 16.0 mph S25.7 kmh S 23.0 mph37.0 kmh 29.79 in1008.8 mb 0.00 in0.0 mm 0.00 in0.0 mm 0.19 in4.8 mm
11:38 AM 51.8°F11.0°C 50.1°F10.1°C 94% 16.0 mph S25.7 kmh S 23.0 mph37.0 kmh 29.79 in1008.8 mb 0.00 in0.0 mm 0.00 in0.0 mm 0.19 in4.8 mm
11:40 AM 51.8°F11.0°C 50.1°F10.1°C 94% 16.0 mph S25.7 kmh S 24.0 mph38.6 kmh 29.79 in1008.8 mb 0.00 in0.0 mm 0.00 in0.0 mm 0.19 in4.8 mm
11:42 AM 51.9°F11.1°C 50.2°F10.1°C 94% 16.0 mph S25.7 kmh S 24.0 mph38.6 kmh 29.79 in1008.8 mb 0.00 in0.0 mm 0.00 in0.0 mm 0.19 in4.8 mm
11:44 AM 51.9°F11.1°C 50.2°F10.1°C 94% 17.0 mph S27.4 kmh S 24.0 mph38.6 kmh 29.79 in1008.8 mb 0.00 in0.0 mm 0.00 in0.0 mm 0.19 in4.8 mm
11:46 AM 51.9°F11.1°C 50.2°F10.1°C 94% 17.0 mph S27.4 kmh S 24.0 mph38.6 kmh 29.78 in1008.5 mb 0.00 in0.0 mm 0.00 in0.0 mm 0.19 in4.8 mm
11:48 AM 52.0°F11.1°C 50.3°F10.2°C 94% 17.0 mph S27.4 kmh S 24.0 mph38.6 kmh 29.78 in1008.5 mb 0.00 in0.0 mm 0.00 in0.0 mm 0.19 in4.8 mm
11:50 AM 52.0°F11.1°C 50.3°F10.2°C 94% 17.0 mph S27.4 kmh S 25.0 mph40.2 kmh 29.78 in1008.5 mb 0.00 in0.0 mm 0.00 in0.0 mm 0.19 in4.8 mm
11:52 AM 51.9°F11.1°C 50.2°F10.1°C 94% 17.0 mph S27.4 kmh S 25.0 mph40.2 kmh 29.78 in1008.5 mb 0.00 in0.0 mm 0.00 in0.0 mm 0.19 in4.8 mm
11:54 AM 51.9°F11.1°C 50.2°F10.1°C 94% 16.0 mph S25.7 kmh S 25.0 mph40.2 kmh 29.78 in1008.5 mb 0.00 in0.0 mm 0.00 in0.0 mm 0.19 in4.8 mm
11:56 AM 51.9°F11.1°C 50.2°F10.1°C 94% 15.0 mph S24.1 kmh S 25.0 mph40.2 kmh 29.78 in1008.5 mb 0.00 in0.0 mm 0.00 in0.0 mm 0.19 in4.8 mm
11:58 AM 51.9°F11.1°C 50.2°F10.1°C 94% 15.0 mph S24.1 kmh S 25.0 mph40.2 kmh 29.78 in1008.5 mb 0.00 in0.0 mm 0.00 in0.0 mm 0.19 in4.8 mm
12:00 PM 52.0°F11.1°C 50.3°F10.2°C 94% 15.0 mph S24.1 kmh S 24.0 mph38.6 kmh 29.78 in1008.5 mb 0.00 in0.0 mm 0.00 in0.0 mm 0.19 in4.8 mm
12:02 PM 51.9°F11.1°C 50.2°F10.1°C 94% 15.0 mph S24.1 kmh S 24.0 mph38.6 kmh 29.78 in1008.5 mb 0.00 in0.0 mm 0.00 in0.0 mm 0.19 in4.8 mm
12:04 PM 51.9°F11.1°C 50.2°F10.1°C 94% 15.0 mph S24.1 kmh S 24.0 mph38.6 kmh 29.78 in1008.5 mb 0.00 in0.0 mm 0.00 in0.0 mm 0.19 in4.8 mm
12:06 PM 51.9°F11.1°C 50.2°F10.1°C 94% 15.0 mph S24.1 kmh S 24.0 mph38.6 kmh 29.78 in1008.5 mb 0.00 in0.0 mm 0.00 in0.0 mm 0.19 in4.8 mm
12:08 PM 52.0°F11.1°C 50.3°F10.2°C 94% 15.0 mph S24.1 kmh S 23.0 mph37.0 kmh 29.78 in1008.5 mb 0.00 in0.0 mm 0.00 in0.0 mm 0.19 in4.8 mm
12:10 PM 52.0°F11.1°C 50.3°F10.2°C 94% 15.0 mph S24.1 kmh S 23.0 mph37.0 kmh 29.77 in1008.1 mb 0.00 in0.0 mm 0.00 in0.0 mm 0.19 in4.8 mm
12:12 PM 52.1°F11.2°C 50.4°F10.2°C 94% 15.0 mph S24.1 kmh S 23.0 mph37.0 kmh 29.77 in1008.1 mb 0.00 in0.0 mm 0.00 in0.0 mm 0.19 in4.8 mm
12:14 PM 52.1°F11.2°C 50.4°F10.2°C 94% 15.0 mph S24.1 kmh S 23.0 mph37.0 kmh 29.77 in1008.1 mb 0.00 in0.0 mm 0.00 in0.0 mm 0.19 in4.8 mm
12:16 PM 52.1°F11.2°C 50.4°F10.2°C 94% 15.0 mph S24.1 kmh S 23.0 mph37.0 kmh 29.77 in1008.1 mb 0.00 in0.0 mm 0.00 in0.0 mm 0.19 in4.8 mm
12:18 PM 52.2°F11.2°C 50.5°F10.3°C 94% 15.0 mph S24.1 kmh S 20.0 mph32.2 kmh 29.77 in1008.1 mb 0.00 in0.0 mm 0.00 in0.0 mm 0.19 in4.8 mm
12:20 PM 52.2°F11.2°C 50.5°F10.3°C 94% 15.0 mph S24.1 kmh S 21.0 mph33.8 kmh 29.77 in1008.1 mb 0.00 in0.0 mm 0.00 in0.0 mm 0.19 in4.8 mm
12:22 PM 52.3°F11.3°C 50.6°F10.3°C 94% 15.0 mph S24.1 kmh S 21.0 mph33.8 kmh 29.77 in1008.1 mb 0.00 in0.0 mm 0.00 in0.0 mm 0.19 in4.8 mm
12:24 PM 52.3°F11.3°C 50.6°F10.3°C 94% 15.0 mph S24.1 kmh S 21.0 mph33.8 kmh 29.77 in1008.1 mb 0.00 in0.0 mm 0.00 in0.0 mm 0.19 in4.8 mm
12:26 PM 52.3°F11.3°C 50.6°F10.3°C 94% 15.0 mph S24.1 kmh S 23.0 mph37.0 kmh 29.77 in1008.1 mb 0.00 in0.0 mm 0.00 in0.0 mm 0.19 in4.8 mm
12:28 PM 52.3°F11.3°C 50.6°F10.3°C 94% 15.0 mph S24.1 kmh S 23.0 mph37.0 kmh 29.77 in1008.1 mb 0.00 in0.0 mm 0.00 in0.0 mm 0.19 in4.8 mm
12:30 PM 52.3°F11.3°C 50.9°F10.5°C 95% 15.0 mph S24.1 kmh S 23.0 mph37.0 kmh 29.77 in1008.1 mb 0.00 in0.0 mm 0.00 in0.0 mm 0.19 in4.8 mm
12:32 PM 52.3°F11.3°C 50.6°F10.3°C 94% 15.0 mph S24.1 kmh S 23.0 mph37.0 kmh 29.77 in1008.1 mb 0.00 in0.0 mm 0.00 in0.0 mm 0.19 in4.8 mm
12:34 PM 52.4°F11.3°C 51.0°F10.6°C 95% 15.0 mph S24.1 kmh S 23.0 mph37.0 kmh 29.77 in1008.1 mb 0.00 in0.0 mm 0.00 in0.0 mm 0.19 in4.8 mm
12:36 PM 52.4°F11.3°C 51.0°F10.6°C 95% 14.0 mph S22.5 kmh S 23.0 mph37.0 kmh 29.77 in1008.1 mb 0.00 in0.0 mm 0.00 in0.0 mm 0.19 in4.8 mm
12:38 PM 52.5°F11.4°C 51.1°F10.6°C 95% 14.0 mph S22.5 kmh S 23.0 mph37.0 kmh 29.77 in1008.1 mb 0.00 in0.0 mm 0.00 in0.0 mm 0.19 in4.8 mm
12:40 PM 52.5°F11.4°C 51.1°F10.6°C 95% 14.0 mph S22.5 kmh S 21.0 mph33.8 kmh 29.77 in1008.1 mb 0.00 in0.0 mm 0.00 in0.0 mm 0.19 in4.8 mm
12:42 PM 52.6°F11.4°C 51.2°F10.7°C 95% 15.0 mph S24.1 kmh S 21.0 mph33.8 kmh 29.77 in1008.1 mb 0.00 in0.0 mm 0.00 in0.0 mm 0.19 in4.8 mm
12:44 PM 52.7°F11.5°C 51.3°F10.7°C 95% 15.0 mph S24.1 kmh S 22.0 mph35.4 kmh 29.77 in1008.1 mb 0.00 in0.0 mm 0.00 in0.0 mm 0.19 in4.8 mm
12:46 PM 52.7°F11.5°C 51.0°F10.6°C 94% 15.0 mph S24.1 kmh S 22.0 mph35.4 kmh 29.77 in1008.1 mb 0.00 in0.0 mm 0.00 in0.0 mm 0.19 in4.8 mm
12:48 PM 52.7°F11.5°C 51.0°F10.6°C 94% 15.0 mph S24.1 kmh S 22.0 mph35.4 kmh 29.77 in1008.1 mb 0.00 in0.0 mm 0.00 in0.0 mm 0.19 in4.8 mm
12:50 PM 52.8°F11.6°C 51.1°F10.6°C 94% 15.0 mph S24.1 kmh S 22.0 mph35.4 kmh 29.77 in1008.1 mb 0.00 in0.0 mm 0.00 in0.0 mm 0.19 in4.8 mm
12:52 PM 52.9°F11.6°C 51.2°F10.7°C 94% 15.0 mph S24.1 kmh S 22.0 mph35.4 kmh 29.77 in1008.1 mb 0.00 in0.0 mm 0.00 in0.0 mm 0.19 in4.8 mm
12:54 PM 53.0°F11.7°C 51.3°F10.7°C 94% 15.0 mph S24.1 kmh S 21.0 mph33.8 kmh 29.77 in1008.1 mb 0.00 in0.0 mm 0.00 in0.0 mm 0.19 in4.8 mm
12:56 PM 53.0°F11.7°C 51.3°F10.7°C 94% 14.0 mph S22.5 kmh S 21.0 mph33.8 kmh 29.76 in1007.8 mb 0.00 in0.0 mm 0.00 in0.0 mm 0.19 in4.8 mm
12:58 PM 53.0°F11.7°C 51.3°F10.7°C 94% 15.0 mph S24.1 kmh S 23.0 mph37.0 kmh 29.77 in1008.1 mb 0.00 in0.0 mm 0.00 in0.0 mm 0.19 in4.8 mm
01:00 PM 53.1°F11.7°C 51.7°F10.9°C 95% 15.0 mph S24.1 kmh S 23.0 mph37.0 kmh 29.77 in1008.1 mb 0.00 in0.0 mm 0.00 in0.0 mm 0.19 in4.8 mm
01:02 PM 53.2°F11.8°C 51.8°F11.0°C 95% 14.0 mph S22.5 kmh S 23.0 mph37.0 kmh 29.76 in1007.8 mb 0.00 in0.0 mm 0.00 in0.0 mm 0.19 in4.8 mm
01:04 PM 53.2°F11.8°C 51.8°F11.0°C 95% 15.0 mph S24.1 kmh S 23.0 mph37.0 kmh 29.76 in1007.8 mb 0.00 in0.0 mm 0.00 in0.0 mm 0.19 in4.8 mm
01:06 PM 53.2°F11.8°C 51.8°F11.0°C 95% 15.0 mph S24.1 kmh S 23.0 mph37.0 kmh 29.76 in1007.8 mb 0.00 in0.0 mm 0.00 in0.0 mm 0.19 in4.8 mm
01:08 PM 53.3°F11.8°C 51.9°F11.1°C 95% 14.0 mph S22.5 kmh S 21.0 mph33.8 kmh 29.76 in1007.8 mb 0.00 in0.0 mm 0.00 in0.0 mm 0.19 in4.8 mm
01:10 PM 53.3°F11.8°C 51.9°F11.1°C 95% 14.0 mph S22.5 kmh S 20.0 mph32.2 kmh 29.76 in1007.8 mb 0.00 in0.0 mm 0.00 in0.0 mm 0.19 in4.8 mm
01:12 PM 53.4°F11.9°C 51.7°F10.9°C 94% 14.0 mph S22.5 kmh S 23.0 mph37.0 kmh 29.76 in1007.8 mb 0.00 in0.0 mm 0.00 in0.0 mm 0.19 in4.8 mm
01:14 PM 53.5°F11.9°C 51.8°F11.0°C 94% 14.0 mph S22.5 kmh S 23.0 mph37.0 kmh 29.77 in1008.1 mb 0.00 in0.0 mm 0.00 in0.0 mm 0.19 in4.8 mm
01:16 PM 53.5°F11.9°C 51.8°F11.0°C 94% 14.0 mph S22.5 kmh S 23.0 mph37.0 kmh 29.77 in1008.1 mb 0.00 in0.0 mm 0.00 in0.0 mm 0.19 in4.8 mm
01:18 PM 53.6°F12.0°C 51.9°F11.1°C 94% 14.0 mph S22.5 kmh S 23.0 mph37.0 kmh 29.77 in1008.1 mb 0.00 in0.0 mm 0.00 in0.0 mm 0.19 in4.8 mm
01:20 PM 53.5°F11.9°C 51.8°F11.0°C 94% 13.0 mph SSW20.9 kmh SSW 23.0 mph37.0 kmh 29.77 in1008.1 mb 0.00 in0.0 mm 0.00 in0.0 mm 0.19 in4.8 mm
01:22 PM 53.5°F11.9°C 51.8°F11.0°C 94% 12.0 mph SSW19.3 kmh SSW 18.0 mph29.0 kmh 29.77 in1008.1 mb 0.00 in0.0 mm 0.00 in0.0 mm 0.19 in4.8 mm
01:24 PM 53.6°F12.0°C 51.9°F11.1°C 94% 11.0 mph SSW17.7 kmh SSW 18.0 mph29.0 kmh 29.77 in1008.1 mb 0.00 in0.0 mm 0.00 in0.0 mm 0.19 in4.8 mm
01:26 PM 53.6°F12.0°C 51.9°F11.1°C 94% 11.0 mph SSW17.7 kmh SSW 20.0 mph32.2 kmh 29.77 in1008.1 mb 0.00 in0.0 mm 0.00 in0.0 mm 0.19 in4.8 mm
01:28 PM 53.7°F12.1°C 52.3°F11.3°C 95% 10.0 mph SSW16.1 kmh SSW 20.0 mph32.2 kmh 29.77 in1008.1 mb 0.00 in0.0 mm 0.00 in0.0 mm 0.19 in4.8 mm
01:30 PM 53.8°F12.1°C 52.4°F11.3°C 95% 11.0 mph SSW17.7 kmh SSW 20.0 mph32.2 kmh 29.77 in1008.1 mb 0.00 in0.0 mm 0.00 in0.0 mm 0.19 in4.8 mm
01:32 PM 53.8°F12.1°C 52.4°F11.3°C 95% 11.0 mph SSW17.7 kmh SSW 20.0 mph32.2 kmh 29.77 in1008.1 mb 0.00 in0.0 mm 0.00 in0.0 mm 0.19 in4.8 mm
01:34 PM 53.9°F12.2°C 52.5°F11.4°C 95% 11.0 mph SSW17.7 kmh SSW 20.0 mph32.2 kmh 29.77 in1008.1 mb 0.00 in0.0 mm 0.00 in0.0 mm 0.19 in4.8 mm
01:36 PM 53.9°F12.2°C 52.5°F11.4°C 95% 11.0 mph SSW17.7 kmh SSW 16.0 mph25.7 kmh 29.77 in1008.1 mb 0.00 in0.0 mm 0.00 in0.0 mm 0.19 in4.8 mm
01:38 PM 54.0°F12.2°C 52.6°F11.4°C 95% 10.0 mph SSW16.1 kmh SSW 15.0 mph24.1 kmh 29.77 in1008.1 mb 0.00 in0.0 mm 0.00 in0.0 mm 0.19 in4.8 mm
01:40 PM 54.0°F12.2°C 52.6°F11.4°C 95% 10.0 mph SSW16.1 kmh SSW 15.0 mph24.1 kmh 29.77 in1008.1 mb 0.00 in0.0 mm 0.00 in0.0 mm 0.19 in4.8 mm
01:42 PM 54.1°F12.3°C 52.4°F11.3°C 94% 10.0 mph SSW16.1 kmh SSW 16.0 mph25.7 kmh 29.78 in1008.5 mb 0.00 in0.0 mm 0.00 in0.0 mm 0.19 in4.8 mm
01:44 PM 54.2°F12.3°C 52.5°F11.4°C 94% 10.0 mph SSW16.1 kmh SSW 16.0 mph25.7 kmh 29.77 in1008.1 mb 0.00 in0.0 mm 0.00 in0.0 mm 0.19 in4.8 mm
01:46 PM 54.3°F12.4°C 52.9°F11.6°C 95% 10.0 mph SSW16.1 kmh SSW 16.0 mph25.7 kmh 29.77 in1008.1 mb 0.00 in0.0 mm 0.00 in0.0 mm 0.19 in4.8 mm
01:48 PM 54.3°F12.4°C 52.9°F11.6°C 95% 10.0 mph SSW16.1 kmh SSW 17.0 mph27.4 kmh 29.77 in1008.1 mb 0.00 in0.0 mm 0.00 in0.0 mm 0.19 in4.8 mm
01:50 PM 54.4°F12.4°C 53.0°F11.7°C 95% 10.0 mph SSW16.1 kmh SSW 17.0 mph27.4 kmh 29.77 in1008.1 mb 0.00 in0.0 mm 0.00 in0.0 mm 0.19 in4.8 mm
01:54 PM 54.4°F12.4°C 52.7°F11.5°C 94% 9.0 mph SSW14.5 kmh SSW 17.0 mph27.4 kmh 29.78 in1008.5 mb 0.00 in0.0 mm 0.00 in0.0 mm 0.19 in4.8 mm
01:56 PM 54.4°F12.4°C 52.7°F11.5°C 94% 9.0 mph SSW14.5 kmh SSW 17.0 mph27.4 kmh 29.78 in1008.5 mb 0.00 in0.0 mm 0.00 in0.0 mm 0.19 in4.8 mm
01:58 PM 54.4°F12.4°C 52.7°F11.5°C 94% 9.0 mph SSW14.5 kmh SSW 15.0 mph24.1 kmh 29.78 in1008.5 mb 0.00 in0.0 mm 0.00 in0.0 mm 0.19 in4.8 mm
02:00 PM 54.4°F12.4°C 52.7°F11.5°C 94% 8.0 mph SSW12.9 kmh SSW 15.0 mph24.1 kmh 29.78 in1008.5 mb 0.00 in0.0 mm 0.00 in0.0 mm 0.19 in4.8 mm
02:02 PM 54.4°F12.4°C 52.7°F11.5°C 94% 8.0 mph SW12.9 kmh SW 15.0 mph24.1 kmh 29.78 in1008.5 mb 0.00 in0.0 mm 0.00 in0.0 mm 0.19 in4.8 mm
02:04 PM 54.4°F12.4°C 52.7°F11.5°C 94% 8.0 mph SW12.9 kmh SW 15.0 mph24.1 kmh 29.79 in1008.8 mb 0.00 in0.0 mm 0.00 in0.0 mm 0.19 in4.8 mm
02:06 PM 54.5°F12.5°C 52.8°F11.6°C 94% 8.0 mph SW12.9 kmh SW 15.0 mph24.1 kmh 29.79 in1008.8 mb 0.00 in0.0 mm 0.00 in0.0 mm 0.19 in4.8 mm
02:08 PM 54.6°F12.6°C 52.9°F11.6°C 94% 9.0 mph SW14.5 kmh SW 16.0 mph25.7 kmh 29.79 in1008.8 mb 0.00 in0.0 mm 0.00 in0.0 mm 0.19 in4.8 mm
02:10 PM 54.4°F12.4°C 52.7°F11.5°C 94% 10.0 mph SW16.1 kmh SW 19.0 mph30.6 kmh 29.79 in1008.8 mb 0.00 in0.0 mm 0.00 in0.0 mm 0.19 in4.8 mm
02:12 PM 54.2°F12.3°C 52.2°F11.2°C 93% 11.0 mph WSW17.7 kmh WSW 19.0 mph30.6 kmh 29.79 in1008.8 mb 0.00 in0.0 mm 0.00 in0.0 mm 0.19 in4.8 mm
02:14 PM 54.1°F12.3°C 52.1°F11.2°C 93% 11.0 mph WSW17.7 kmh WSW 19.0 mph30.6 kmh 29.79 in1008.8 mb 0.00 in0.0 mm 0.00 in0.0 mm 0.19 in4.8 mm
02:16 PM 53.9°F12.2°C 51.9°F11.1°C 93% 11.0 mph WSW17.7 kmh WSW 19.0 mph30.6 kmh 29.79 in1008.8 mb 0.00 in0.0 mm 0.00 in0.0 mm 0.19 in4.8 mm
02:18 PM 53.9°F12.2°C 51.9°F11.1°C 93% 11.0 mph WSW17.7 kmh WSW 19.0 mph30.6 kmh 29.80 in1009.1 mb 0.00 in0.0 mm 0.00 in0.0 mm 0.19 in4.8 mm
02:20 PM 53.8°F12.1°C 51.5°F10.8°C 92% 11.0 mph WSW17.7 kmh WSW 18.0 mph29.0 kmh 29.80 in1009.1 mb 0.00 in0.0 mm 0.00 in0.0 mm 0.19 in4.8 mm
02:22 PM 53.7°F12.1°C 51.4°F10.8°C 92% 11.0 mph WSW17.7 kmh WSW 18.0 mph29.0 kmh 29.80 in1009.1 mb 0.00 in0.0 mm 0.00 in0.0 mm 0.19 in4.8 mm
02:24 PM 53.7°F12.1°C 51.4°F10.8°C 92% 11.0 mph WSW17.7 kmh WSW 19.0 mph30.6 kmh 29.80 in1009.1 mb 0.00 in0.0 mm 0.00 in0.0 mm 0.19 in4.8 mm
02:26 PM 53.6°F12.0°C 51.3°F10.7°C 92% 11.0 mph WSW17.7 kmh WSW 19.0 mph30.6 kmh 29.80 in1009.1 mb 0.00 in0.0 mm 0.00 in0.0 mm 0.19 in4.8 mm
02:28 PM 53.5°F11.9°C 51.2°F10.7°C 92% 12.0 mph WSW19.3 kmh WSW 19.0 mph30.6 kmh 29.80 in1009.1 mb 0.00 in0.0 mm 0.00 in0.0 mm 0.19 in4.8 mm
02:30 PM 53.5°F11.9°C 51.2°F10.7°C 92% 12.0 mph WSW19.3 kmh WSW 21.0 mph33.8 kmh 29.81 in1009.5 mb 0.00 in0.0 mm 0.00 in0.0 mm 0.19 in4.8 mm
02:32 PM 53.4°F11.9°C 51.1°F10.6°C 92% 12.0 mph WSW19.3 kmh WSW 21.0 mph33.8 kmh 29.81 in1009.5 mb 0.00 in0.0 mm 0.00 in0.0 mm 0.19 in4.8 mm
02:34 PM 53.4°F11.9°C 51.1°F10.6°C 92% 12.0 mph WSW19.3 kmh WSW 21.0 mph33.8 kmh 29.81 in1009.5 mb 0.00 in0.0 mm 0.00 in0.0 mm 0.19 in4.8 mm
02:36 PM 53.3°F11.8°C 51.0°F10.6°C 92% 12.0 mph WSW19.3 kmh WSW 21.0 mph33.8 kmh 29.81 in1009.5 mb 0.00 in0.0 mm 0.00 in0.0 mm 0.19 in4.8 mm
02:38 PM 53.2°F11.8°C 50.6°F10.3°C 91% 12.0 mph WSW19.3 kmh WSW 21.0 mph33.8 kmh 29.81 in1009.5 mb 0.00 in0.0 mm 0.00 in0.0 mm 0.19 in4.8 mm
02:40 PM 53.1°F11.7°C 50.5°F10.3°C 91% 12.0 mph WSW19.3 kmh WSW 21.0 mph33.8 kmh 29.82 in1009.8 mb 0.00 in0.0 mm 0.00 in0.0 mm 0.19 in4.8 mm
02:42 PM 53.0°F11.7°C 50.4°F10.2°C 91% 12.0 mph WSW19.3 kmh WSW 21.0 mph33.8 kmh 29.82 in1009.8 mb 0.00 in0.0 mm 0.00 in0.0 mm 0.19 in4.8 mm
02:44 PM 52.8°F11.6°C 50.2°F10.1°C 91% 12.0 mph WSW19.3 kmh WSW 21.0 mph33.8 kmh 29.82 in1009.8 mb 0.00 in0.0 mm 0.00 in0.0 mm 0.19 in4.8 mm
02:46 PM 52.8°F11.6°C 50.2°F10.1°C 91% 12.0 mph WSW19.3 kmh WSW 22.0 mph35.4 kmh 29.82 in1009.8 mb 0.00 in0.0 mm 0.00 in0.0 mm 0.19 in4.8 mm
02:48 PM 52.6°F11.4°C 50.0°F10.0°C 91% 12.0 mph WSW19.3 kmh WSW 22.0 mph35.4 kmh 29.82 in1009.8 mb 0.00 in0.0 mm 0.00 in0.0 mm 0.19 in4.8 mm
02:50 PM 52.6°F11.4°C 50.0°F10.0°C 91% 12.0 mph WSW19.3 kmh WSW 22.0 mph35.4 kmh 29.82 in1009.8 mb 0.00 in0.0 mm 0.00 in0.0 mm 0.19 in4.8 mm
02:52 PM 52.5°F11.4°C 49.9°F9.9°C 91% 12.0 mph WSW19.3 kmh WSW 22.0 mph35.4 kmh 29.83 in1010.2 mb 0.00 in0.0 mm 0.00 in0.0 mm 0.19 in4.8 mm
02:54 PM 52.5°F11.4°C 49.9°F9.9°C 91% 12.0 mph WSW19.3 kmh WSW 22.0 mph35.4 kmh 29.83 in1010.2 mb 0.00 in0.0 mm 0.00 in0.0 mm 0.19 in4.8 mm
02:56 PM 52.4°F11.3°C 49.8°F9.9°C 91% 12.0 mph WSW19.3 kmh WSW 22.0 mph35.4 kmh 29.83 in1010.2 mb 0.00 in0.0 mm 0.00 in0.0 mm 0.19 in4.8 mm
02:58 PM 52.4°F11.3°C 49.8°F9.9°C 91% 11.0 mph WSW17.7 kmh WSW 18.0 mph29.0 kmh 29.83 in1010.2 mb 0.00 in0.0 mm 0.00 in0.0 mm 0.19 in4.8 mm
03:00 PM 52.3°F11.3°C 49.8°F9.9°C 91% 11.0 mph WSW17.7 kmh WSW 21.0 mph33.8 kmh 29.83 in1010.2 mb 0.00 in0.0 mm 0.00 in0.0 mm 0.19 in4.8 mm
03:02 PM 52.2°F11.2°C 49.4°F9.7°C 90% 11.0 mph WSW17.7 kmh WSW 21.0 mph33.8 kmh 29.83 in1010.2 mb 0.00 in0.0 mm 0.00 in0.0 mm 0.19 in4.8 mm
03:04 PM 52.1°F11.2°C 49.3°F9.6°C 90% 11.0 mph WSW17.7 kmh WSW 21.0 mph33.8 kmh 29.83 in1010.2 mb 0.00 in0.0 mm 0.00 in0.0 mm 0.19 in4.8 mm
03:06 PM 52.0°F11.1°C 49.2°F9.6°C 90% 11.0 mph WSW17.7 kmh WSW 21.0 mph33.8 kmh 29.83 in1010.2 mb 0.00 in0.0 mm 0.00 in0.0 mm 0.19 in4.8 mm
03:08 PM 51.9°F11.1°C 49.1°F9.5°C 90% 12.0 mph WSW19.3 kmh WSW 21.0 mph33.8 kmh 29.84 in1010.5 mb 0.00 in0.0 mm 0.00 in0.0 mm 0.19 in4.8 mm
03:10 PM 51.9°F11.1°C 49.1°F9.5°C 90% 11.0 mph WSW17.7 kmh WSW 19.0 mph30.6 kmh 29.84 in1010.5 mb 0.00 in0.0 mm 0.00 in0.0 mm 0.19 in4.8 mm
03:12 PM 51.9°F11.1°C 49.1°F9.5°C 90% 11.0 mph WSW17.7 kmh WSW 19.0 mph30.6 kmh 29.84 in1010.5 mb 0.00 in0.0 mm 0.00 in0.0 mm 0.19 in4.8 mm
03:14 PM 51.9°F11.1°C 49.1°F9.5°C 90% 11.0 mph WSW17.7 kmh WSW 19.0 mph30.6 kmh 29.84 in1010.5 mb 0.00 in0.0 mm 0.00 in0.0 mm 0.19 in4.8 mm
03:16 PM 51.8°F11.0°C 49.0°F9.4°C 90% 10.0 mph WSW16.1 kmh WSW 19.0 mph30.6 kmh 29.84 in1010.5 mb 0.00 in0.0 mm 0.00 in0.0 mm 0.19 in4.8 mm
03:18 PM 51.7°F10.9°C 48.9°F9.4°C 90% 10.0 mph WSW16.1 kmh WSW 19.0 mph30.6 kmh 29.84 in1010.5 mb 0.00 in0.0 mm 0.00 in0.0 mm 0.19 in4.8 mm
03:20 PM 51.6°F10.9°C 48.8°F9.3°C 90% 10.0 mph WSW16.1 kmh WSW 19.0 mph30.6 kmh 29.85 in1010.8 mb 0.00 in0.0 mm 0.00 in0.0 mm 0.19 in4.8 mm
03:22 PM 51.6°F10.9°C 48.8°F9.3°C 90% 10.0 mph WSW16.1 kmh WSW 18.0 mph29.0 kmh 29.85 in1010.8 mb 0.00 in0.0 mm 0.00 in0.0 mm 0.19 in4.8 mm
03:24 PM 51.5°F10.8°C 48.7°F9.3°C 90% 10.0 mph WSW16.1 kmh WSW 18.0 mph29.0 kmh 29.85 in1010.8 mb 0.00 in0.0 mm 0.00 in0.0 mm 0.19 in4.8 mm
03:26 PM 51.4°F10.8°C 48.9°F9.4°C 91% 10.0 mph WSW16.1 kmh WSW 18.0 mph29.0 kmh 29.85 in1010.8 mb 0.00 in0.0 mm 0.00 in0.0 mm 0.19 in4.8 mm
03:28 PM 51.4°F10.8°C 48.9°F9.4°C 91% 10.0 mph WSW16.1 kmh WSW 17.0 mph27.4 kmh 29.85 in1010.8 mb 0.00 in0.0 mm 0.00 in0.0 mm 0.19 in4.8 mm
03:30 PM 51.3°F10.7°C 48.8°F9.3°C 91% 10.0 mph WSW16.1 kmh WSW 17.0 mph27.4 kmh 29.85 in1010.8 mb 0.00 in0.0 mm 0.00 in0.0 mm 0.19 in4.8 mm
03:32 PM 51.3°F10.7°C 48.8°F9.3°C 91% 10.0 mph WSW16.1 kmh WSW 16.0 mph25.7 kmh 29.85 in1010.8 mb 0.00 in0.0 mm 0.00 in0.0 mm 0.19 in4.8 mm
03:34 PM 51.2°F10.7°C 48.7°F9.3°C 91% 10.0 mph WSW16.1 kmh WSW 16.0 mph25.7 kmh 29.85 in1010.8 mb 0.00 in0.0 mm 0.00 in0.0 mm 0.19 in4.8 mm
03:36 PM 51.2°F10.7°C 48.7°F9.3°C 91% 10.0 mph WSW16.1 kmh WSW 16.0 mph25.7 kmh 29.85 in1010.8 mb 0.00 in0.0 mm 0.00 in0.0 mm 0.19 in4.8 mm
03:38 PM 51.2°F10.7°C 48.7°F9.3°C 91% 9.0 mph WSW14.5 kmh WSW 16.0 mph25.7 kmh 29.85 in1010.8 mb 0.00 in0.0 mm 0.00 in0.0 mm 0.19 in4.8 mm
03:40 PM 51.1°F10.6°C 48.6°F9.2°C 91% 8.0 mph WSW12.9 kmh WSW 15.0 mph24.1 kmh 29.85 in1010.8 mb 0.00 in0.0 mm 0.00 in0.0 mm 0.19 in4.8 mm
03:42 PM 51.0°F10.6°C 48.5°F9.2°C 91% 6.0 mph WSW9.7 kmh WSW 13.0 mph20.9 kmh 29.85 in1010.8 mb 0.00 in0.0 mm 0.00 in0.0 mm 0.19 in4.8 mm
03:44 PM 50.9°F10.5°C 48.7°F9.3°C 92% 6.0 mph W9.7 kmh W 13.0 mph20.9 kmh 29.86 in1011.2 mb 0.00 in0.0 mm 0.00 in0.0 mm 0.19 in4.8 mm
03:46 PM 50.7°F10.4°C 48.2°F9.0°C 91% 6.0 mph W9.7 kmh W 13.0 mph20.9 kmh 29.86 in1011.2 mb 0.00 in0.0 mm 0.00 in0.0 mm 0.19 in4.8 mm
03:48 PM 50.7°F10.4°C 48.2°F9.0°C 91% 6.0 mph WSW9.7 kmh WSW 13.0 mph20.9 kmh 29.86 in1011.2 mb 0.00 in0.0 mm 0.00 in0.0 mm 0.19 in4.8 mm
03:50 PM 50.6°F10.3°C 48.1°F8.9°C 91% 7.0 mph WSW11.3 kmh WSW 13.0 mph20.9 kmh 29.86 in1011.2 mb 0.00 in0.0 mm 0.00 in0.0 mm 0.19 in4.8 mm
03:52 PM 50.5°F10.3°C 48.3°F9.1°C 92% 7.0 mph WSW11.3 kmh WSW 13.0 mph20.9 kmh 29.86 in1011.2 mb 0.00 in0.0 mm 0.00 in0.0 mm 0.19 in4.8 mm
03:54 PM 50.4°F10.2°C 48.2°F9.0°C 92% 7.0 mph WSW11.3 kmh WSW 12.0 mph19.3 kmh 29.87 in1011.5 mb 0.00 in0.0 mm 0.00 in0.0 mm 0.19 in4.8 mm
03:56 PM 50.4°F10.2°C 48.2°F9.0°C 92% 7.0 mph WSW11.3 kmh WSW 12.0 mph19.3 kmh 29.87 in1011.5 mb 0.00 in0.0 mm 0.00 in0.0 mm 0.19 in4.8 mm
03:58 PM 50.3°F10.2°C 48.1°F8.9°C 92% 7.0 mph WSW11.3 kmh WSW 16.0 mph25.7 kmh 29.87 in1011.5 mb 0.00 in0.0 mm 0.00 in0.0 mm 0.19 in4.8 mm
04:00 PM 50.2°F10.1°C 48.0°F8.9°C 92% 8.0 mph WSW12.9 kmh WSW 16.0 mph25.7 kmh 29.87 in1011.5 mb 0.00 in0.0 mm 0.00 in0.0 mm 0.19 in4.8 mm
04:02 PM 50.0°F10.0°C 47.8°F8.8°C 92% 9.0 mph WSW14.5 kmh WSW 16.0 mph25.7 kmh 29.87 in1011.5 mb 0.00 in0.0 mm 0.00 in0.0 mm 0.19 in4.8 mm
04:04 PM 49.9°F9.9°C 47.7°F8.7°C 92% 9.0 mph WSW14.5 kmh WSW 16.0 mph25.7 kmh 29.87 in1011.5 mb 0.00 in0.0 mm 0.00 in0.0 mm 0.19 in4.8 mm
04:06 PM 49.9°F9.9°C 47.7°F8.7°C 92% 9.0 mph WSW14.5 kmh WSW 16.0 mph25.7 kmh 29.88 in1011.9 mb 0.00 in0.0 mm 0.00 in0.0 mm 0.19 in4.8 mm
04:08 PM 49.8°F9.9°C 47.6°F8.7°C 92% 9.0 mph WSW14.5 kmh WSW 16.0 mph25.7 kmh 29.88 in1011.9 mb 0.00 in0.0 mm 0.00 in0.0 mm 0.19 in4.8 mm
04:10 PM 49.7°F9.8°C 47.5°F8.6°C 92% 10.0 mph WSW16.1 kmh WSW 16.0 mph25.7 kmh 29.88 in1011.9 mb 0.00 in0.0 mm 0.00 in0.0 mm 0.19 in4.8 mm
04:12 PM 49.6°F9.8°C 47.4°F8.6°C 92% 9.0 mph WSW14.5 kmh WSW 19.0 mph30.6 kmh 29.88 in1011.9 mb 0.00 in0.0 mm 0.00 in0.0 mm 0.19 in4.8 mm
04:14 PM 49.6°F9.8°C 47.4°F8.6°C 92% 10.0 mph WSW16.1 kmh WSW 19.0 mph30.6 kmh 29.88 in1011.9 mb 0.00 in0.0 mm 0.00 in0.0 mm 0.19 in4.8 mm
04:16 PM 49.5°F9.7°C 47.3°F8.5°C 92% 9.0 mph WSW14.5 kmh WSW 19.0 mph30.6 kmh 29.88 in1011.9 mb 0.00 in0.0 mm 0.00 in0.0 mm 0.19 in4.8 mm
04:18 PM 49.5°F9.7°C 47.3°F8.5°C 92% 9.0 mph WSW14.5 kmh WSW 19.0 mph30.6 kmh 29.88 in1011.9 mb 0.00 in0.0 mm 0.00 in0.0 mm 0.19 in4.8 mm
04:20 PM 49.4°F9.7°C 47.2°F8.4°C 92% 9.0 mph WSW14.5 kmh WSW 19.0 mph30.6 kmh 29.88 in1011.9 mb 0.00 in0.0 mm 0.00 in0.0 mm 0.19 in4.8 mm
04:22 PM 49.4°F9.7°C 46.9°F8.3°C 91% 9.0 mph WSW14.5 kmh WSW 15.0 mph24.1 kmh 29.88 in1011.9 mb 0.00 in0.0 mm 0.00 in0.0 mm 0.19 in4.8 mm
04:24 PM 49.3°F9.6°C 46.8°F8.2°C 91% 10.0 mph WSW16.1 kmh WSW 15.0 mph24.1 kmh 29.88 in1011.9 mb 0.00 in0.0 mm 0.00 in0.0 mm 0.19 in4.8 mm
04:26 PM 49.3°F9.6°C 46.8°F8.2°C 91% 10.0 mph WSW16.1 kmh WSW 15.0 mph24.1 kmh 29.89 in1012.2 mb 0.00 in0.0 mm 0.00 in0.0 mm 0.19 in4.8 mm
04:28 PM 49.2°F9.6°C 46.7°F8.2°C 91% 10.0 mph WSW16.1 kmh WSW 15.0 mph24.1 kmh 29.89 in1012.2 mb 0.00 in0.0 mm 0.00 in0.0 mm 0.19 in4.8 mm
04:30 PM 49.2°F9.6°C 46.7°F8.2°C 91% 9.0 mph WSW14.5 kmh WSW 16.0 mph25.7 kmh 29.89 in1012.2 mb 0.00 in0.0 mm 0.00 in0.0 mm 0.19 in4.8 mm
04:32 PM 49.1°F9.5°C 46.6°F8.1°C 91% 9.0 mph WSW14.5 kmh WSW 16.0 mph25.7 kmh 29.89 in1012.2 mb 0.00 in0.0 mm 0.00 in0.0 mm 0.19 in4.8 mm
04:34 PM 49.0°F9.4°C 46.5°F8.1°C 91% 9.0 mph WSW14.5 kmh WSW 17.0 mph27.4 kmh 29.90 in1012.5 mb 0.00 in0.0 mm 0.00 in0.0 mm 0.19 in4.8 mm
04:36 PM 48.9°F9.4°C 46.4°F8.0°C 91% 10.0 mph WSW16.1 kmh WSW 18.0 mph29.0 kmh 29.90 in1012.5 mb 0.00 in0.0 mm 0.00 in0.0 mm 0.19 in4.8 mm
04:38 PM 48.7°F9.3°C 45.9°F7.7°C 90% 10.0 mph WSW16.1 kmh WSW 18.0 mph29.0 kmh 29.90 in1012.5 mb 0.00 in0.0 mm 0.00 in0.0 mm 0.19 in4.8 mm
04:40 PM 48.6°F9.2°C 45.8°F7.7°C 90% 10.0 mph WSW16.1 kmh WSW 18.0 mph29.0 kmh 29.90 in1012.5 mb 0.00 in0.0 mm 0.00 in0.0 mm 0.19 in4.8 mm
04:42 PM 48.5°F9.2°C 45.7°F7.6°C 90% 10.0 mph WSW16.1 kmh WSW 18.0 mph29.0 kmh 29.90 in1012.5 mb 0.00 in0.0 mm 0.00 in0.0 mm 0.19 in4.8 mm
04:44 PM 48.3°F9.1°C 45.5°F7.5°C 90% 10.0 mph WSW16.1 kmh WSW 18.0 mph29.0 kmh 29.91 in1012.9 mb 0.00 in0.0 mm 0.00 in0.0 mm 0.19 in4.8 mm
04:46 PM 48.2°F9.0°C 45.4°F7.4°C 90% 10.0 mph W16.1 kmh W 18.0 mph29.0 kmh 29.91 in1012.9 mb 0.00 in0.0 mm 0.00 in0.0 mm 0.19 in4.8 mm
04:48 PM 48.0°F8.9°C 45.2°F7.3°C 90% 11.0 mph W17.7 kmh W 18.0 mph29.0 kmh 29.91 in1012.9 mb 0.00 in0.0 mm 0.00 in0.0 mm 0.19 in4.8 mm
04:50 PM 47.9°F8.8°C 45.1°F7.3°C 90% 10.0 mph W16.1 kmh W 18.0 mph29.0 kmh 29.91 in1012.9 mb 0.00 in0.0 mm 0.00 in0.0 mm 0.19 in4.8 mm
04:52 PM 47.8°F8.8°C 45.0°F7.2°C 90% 10.0 mph W16.1 kmh W 18.0 mph29.0 kmh 29.91 in1012.9 mb 0.00 in0.0 mm 0.00 in0.0 mm 0.19 in4.8 mm
04:54 PM 47.7°F8.7°C 44.9°F7.2°C 90% 10.0 mph W16.1 kmh W 17.0 mph27.4 kmh 29.91 in1012.9 mb 0.00 in0.0 mm 0.00 in0.0 mm 0.19 in4.8 mm
04:56 PM 47.6°F8.7°C 45.1°F7.3°C 91% 9.0 mph W14.5 kmh W 17.0 mph27.4 kmh 29.91 in1012.9 mb 0.00 in0.0 mm 0.00 in0.0 mm 0.19 in4.8 mm
04:58 PM 47.6°F8.7°C 44.8°F7.1°C 90% 9.0 mph W14.5 kmh W 17.0 mph27.4 kmh 29.91 in1012.9 mb 0.00 in0.0 mm 0.00 in0.0 mm 0.19 in4.8 mm
05:00 PM 47.5°F8.6°C 45.0°F7.2°C 91% 9.0 mph W14.5 kmh W 17.0 mph27.4 kmh 29.92 in1013.2 mb 0.00 in0.0 mm 0.00 in0.0 mm 0.19 in4.8 mm
05:02 PM 47.4°F8.6°C 44.9°F7.2°C 91% 9.0 mph W14.5 kmh W 17.0 mph27.4 kmh 29.92 in1013.2 mb 0.00 in0.0 mm 0.00 in0.0 mm 0.19 in4.8 mm
05:04 PM 47.2°F8.4°C 44.7°F7.1°C 91% 9.0 mph W14.5 kmh W 17.0 mph27.4 kmh 29.92 in1013.2 mb 0.00 in0.0 mm 0.00 in0.0 mm 0.19 in4.8 mm
05:06 PM 47.2°F8.4°C 44.7°F7.1°C 91% 9.0 mph W14.5 kmh W 15.0 mph24.1 kmh 29.92 in1013.2 mb 0.00 in0.0 mm 0.00 in0.0 mm 0.19 in4.8 mm
05:08 PM 47.1°F8.4°C 44.6°F7.0°C 91% 9.0 mph W14.5 kmh W 15.0 mph24.1 kmh 29.92 in1013.2 mb 0.00 in0.0 mm 0.00 in0.0 mm 0.19 in4.8 mm
05:10 PM 47.0°F8.3°C 44.5°F6.9°C 91% 9.0 mph W14.5 kmh W 15.0 mph24.1 kmh 29.92 in1013.2 mb 0.00 in0.0 mm 0.00 in0.0 mm 0.19 in4.8 mm
05:12 PM 46.9°F8.3°C 44.4°F6.9°C 91% 9.0 mph W14.5 kmh W 14.0 mph22.5 kmh 29.93 in1013.5 mb 0.00 in0.0 mm 0.00 in0.0 mm 0.19 in4.8 mm
05:14 PM 46.8°F8.2°C 44.3°F6.8°C 91% 8.0 mph W12.9 kmh W 14.0 mph22.5 kmh 29.93 in1013.5 mb 0.00 in0.0 mm 0.00 in0.0 mm 0.19 in4.8 mm
05:16 PM 46.8°F8.2°C 44.3°F6.8°C 91% 9.0 mph W14.5 kmh W 15.0 mph24.1 kmh 29.93 in1013.5 mb 0.00 in0.0 mm 0.00 in0.0 mm 0.19 in4.8 mm
05:18 PM 46.7°F8.2°C 44.2°F6.8°C 91% 9.0 mph W14.5 kmh W 17.0 mph27.4 kmh 29.93 in1013.5 mb 0.00 in0.0 mm 0.00 in0.0 mm 0.19 in4.8 mm
05:20 PM 46.6°F8.1°C 44.1°F6.7°C 91% 9.0 mph W14.5 kmh W 18.0 mph29.0 kmh 29.93 in1013.5 mb 0.00 in0.0 mm 0.00 in0.0 mm 0.19 in4.8 mm
05:22 PM 46.5°F8.1°C 44.0°F6.7°C 91% 10.0 mph W16.1 kmh W 18.0 mph29.0 kmh 29.93 in1013.5 mb 0.00 in0.0 mm 0.00 in0.0 mm 0.19 in4.8 mm
05:24 PM 46.4°F8.0°C 43.9°F6.6°C 91% 10.0 mph W16.1 kmh W 18.0 mph29.0 kmh 29.93 in1013.5 mb 0.00 in0.0 mm 0.00 in0.0 mm 0.19 in4.8 mm
05:26 PM 46.4°F8.0°C 43.9°F6.6°C 91% 10.0 mph W16.1 kmh W 18.0 mph29.0 kmh 29.93 in1013.5 mb 0.00 in0.0 mm 0.00 in0.0 mm 0.19 in4.8 mm
05:28 PM 46.3°F7.9°C 43.8°F6.6°C 91% 10.0 mph W16.1 kmh W 18.0 mph29.0 kmh 29.93 in1013.5 mb 0.00 in0.0 mm 0.00 in0.0 mm 0.19 in4.8 mm
05:30 PM 46.2°F7.9°C 43.7°F6.5°C 91% 10.0 mph W16.1 kmh W 17.0 mph27.4 kmh 29.93 in1013.5 mb 0.00 in0.0 mm 0.00 in0.0 mm 0.19 in4.8 mm
05:32 PM 46.1°F7.8°C 43.6°F6.4°C 91% 10.0 mph W16.1 kmh W 16.0 mph25.7 kmh 29.94 in1013.9 mb 0.00 in0.0 mm 0.00 in0.0 mm 0.19 in4.8 mm
05:34 PM 46.0°F7.8°C 43.5°F6.4°C 91% 10.0 mph W16.1 kmh W 17.0 mph27.4 kmh 29.94 in1013.9 mb 0.00 in0.0 mm 0.00 in0.0 mm 0.19 in4.8 mm
05:36 PM 45.9°F7.7°C 43.4°F6.3°C 91% 10.0 mph W16.1 kmh W 17.0 mph27.4 kmh 29.94 in1013.9 mb 0.00 in0.0 mm 0.00 in0.0 mm 0.19 in4.8 mm
05:38 PM 45.8°F7.7°C 43.3°F6.3°C 91% 10.0 mph W16.1 kmh W 17.0 mph27.4 kmh 29.93 in1013.5 mb 0.00 in0.0 mm 0.00 in0.0 mm 0.19 in4.8 mm
05:40 PM 45.6°F7.6°C 43.1°F6.2°C 91% 10.0 mph W16.1 kmh W 17.0 mph27.4 kmh 29.94 in1013.9 mb 0.00 in0.0 mm 0.00 in0.0 mm 0.19 in4.8 mm
05:42 PM 45.5°F7.5°C 43.0°F6.1°C 91% 10.0 mph W16.1 kmh W 18.0 mph29.0 kmh 29.94 in1013.9 mb 0.00 in0.0 mm 0.00 in0.0 mm 0.19 in4.8 mm
05:44 PM 45.3°F7.4°C 42.8°F6.0°C 91% 10.0 mph W16.1 kmh W 18.0 mph29.0 kmh 29.94 in1013.9 mb 0.00 in0.0 mm 0.00 in0.0 mm 0.19 in4.8 mm
05:46 PM 45.2°F7.3°C 42.7°F5.9°C 91% 10.0 mph W16.1 kmh W 18.0 mph29.0 kmh 29.94 in1013.9 mb 0.00 in0.0 mm 0.00 in0.0 mm 0.19 in4.8 mm
05:48 PM 45.1°F7.3°C 42.6°F5.9°C 91% 10.0 mph W16.1 kmh W 18.0 mph29.0 kmh 29.94 in1013.9 mb 0.00 in0.0 mm 0.00 in0.0 mm 0.19 in4.8 mm
05:50 PM 45.1°F7.3°C 42.6°F5.9°C 91% 9.0 mph W14.5 kmh W 18.0 mph29.0 kmh 29.94 in1013.9 mb 0.00 in0.0 mm 0.00 in0.0 mm 0.19 in4.8 mm
05:52 PM 45.0°F7.2°C 42.5°F5.8°C 91% 9.0 mph W14.5 kmh W 17.0 mph27.4 kmh 29.94 in1013.9 mb 0.00 in0.0 mm 0.00 in0.0 mm 0.19 in4.8 mm
05:54 PM 44.9°F7.2°C 42.4°F5.8°C 91% 9.0 mph W14.5 kmh W 17.0 mph27.4 kmh 29.94 in1013.9 mb 0.00 in0.0 mm 0.00 in0.0 mm 0.19 in4.8 mm
05:56 PM 44.9°F7.2°C 42.4°F5.8°C 91% 9.0 mph W14.5 kmh W 17.0 mph27.4 kmh 29.94 in1013.9 mb 0.00 in0.0 mm 0.00 in0.0 mm 0.19 in4.8 mm
05:58 PM 44.8°F7.1°C 42.3°F5.7°C 91% 9.0 mph W14.5 kmh W 17.0 mph27.4 kmh 29.94 in1013.9 mb 0.00 in0.0 mm 0.00 in0.0 mm 0.19 in4.8 mm
06:00 PM 44.7°F7.1°C 42.2°F5.7°C 91% 9.0 mph W14.5 kmh W 17.0 mph27.4 kmh 29.94 in1013.9 mb 0.00 in0.0 mm 0.00 in0.0 mm 0.19 in4.8 mm
06:02 PM 44.7°F7.1°C 42.2°F5.7°C 91% 9.0 mph W14.5 kmh W 17.0 mph27.4 kmh 29.94 in1013.9 mb 0.00 in0.0 mm 0.00 in0.0 mm 0.19 in4.8 mm
06:04 PM 44.6°F7.0°C 42.1°F5.6°C 91% 9.0 mph W14.5 kmh W 15.0 mph24.1 kmh 29.94 in1013.9 mb 0.00 in0.0 mm 0.00 in0.0 mm 0.19 in4.8 mm
06:06 PM 44.5°F6.9°C 42.0°F5.6°C 91% 9.0 mph W14.5 kmh W 17.0 mph27.4 kmh 29.95 in1014.2 mb 0.00 in0.0 mm 0.00 in0.0 mm 0.19 in4.8 mm
06:08 PM 44.5°F6.9°C 42.0°F5.6°C 91% 9.0 mph W14.5 kmh W 17.0 mph27.4 kmh 29.95 in1014.2 mb 0.00 in0.0 mm 0.00 in0.0 mm 0.19 in4.8 mm
06:10 PM 44.5°F6.9°C 42.0°F5.6°C 91% 9.0 mph W14.5 kmh W 17.0 mph27.4 kmh 29.94 in1013.9 mb 0.00 in0.0 mm 0.00 in0.0 mm 0.19 in4.8 mm
06:12 PM 44.5°F6.9°C 42.0°F5.6°C 91% 9.0 mph W14.5 kmh W 17.0 mph27.4 kmh 29.95 in1014.2 mb 0.00 in0.0 mm 0.00 in0.0 mm 0.19 in4.8 mm
06:14 PM 44.4°F6.9°C 41.9°F5.5°C 91% 9.0 mph W14.5 kmh W 17.0 mph27.4 kmh 29.95 in1014.2 mb 0.00 in0.0 mm 0.00 in0.0 mm 0.19 in4.8 mm
06:16 PM 44.4°F6.9°C 41.9°F5.5°C 91% 9.0 mph W14.5 kmh W 15.0 mph24.1 kmh 29.95 in1014.2 mb 0.00 in0.0 mm 0.00 in0.0 mm 0.19 in4.8 mm
06:18 PM 44.4°F6.9°C 41.9°F5.5°C 91% 9.0 mph W14.5 kmh W 15.0 mph24.1 kmh 29.95 in1014.2 mb 0.00 in0.0 mm 0.00 in0.0 mm 0.19 in4.8 mm
06:20 PM 44.3°F6.8°C 41.8°F5.4°C 91% 10.0 mph W16.1 kmh W 15.0 mph24.1 kmh 29.95 in1014.2 mb 0.00 in0.0 mm 0.00 in0.0 mm 0.19 in4.8 mm
06:22 PM 44.4°F6.9°C 41.9°F5.5°C 91% 9.0 mph W14.5 kmh W 15.0 mph24.1 kmh 29.96 in1014.6 mb 0.00 in0.0 mm 0.00 in0.0 mm 0.19 in4.8 mm
06:24 PM 44.4°F6.9°C 41.9°F5.5°C 91% 9.0 mph W14.5 kmh W 15.0 mph24.1 kmh 29.96 in1014.6 mb 0.00 in0.0 mm 0.00 in0.0 mm 0.19 in4.8 mm
06:26 PM 44.3°F6.8°C 41.8°F5.4°C 91% 9.0 mph W14.5 kmh W 14.0 mph22.5 kmh 29.96 in1014.6 mb 0.00 in0.0 mm 0.00 in0.0 mm 0.19 in4.8 mm
06:28 PM 44.3°F6.8°C 41.8°F5.4°C 91% 8.0 mph W12.9 kmh W 14.0 mph22.5 kmh 29.96 in1014.6 mb 0.00 in0.0 mm 0.00 in0.0 mm 0.19 in4.8 mm
06:30 PM 44.3°F6.8°C 41.8°F5.4°C 91% 8.0 mph W12.9 kmh W 12.0 mph19.3 kmh 29.97 in1014.9 mb 0.00 in0.0 mm 0.00 in0.0 mm 0.19 in4.8 mm
06:32 PM 44.3°F6.8°C 41.8°F5.4°C 91% 7.0 mph W11.3 kmh W 13.0 mph20.9 kmh 29.96 in1014.6 mb 0.00 in0.0 mm 0.00 in0.0 mm 0.19 in4.8 mm
06:34 PM 44.2°F6.8°C 41.7°F5.4°C 91% 7.0 mph W11.3 kmh W 13.0 mph20.9 kmh 29.97 in1014.9 mb 0.00 in0.0 mm 0.00 in0.0 mm 0.19 in4.8 mm
06:36 PM 44.1°F6.7°C 41.6°F5.3°C 91% 7.0 mph W11.3 kmh W 13.0 mph20.9 kmh 29.97 in1014.9 mb 0.00 in0.0 mm 0.00 in0.0 mm 0.19 in4.8 mm
06:38 PM 44.1°F6.7°C 41.6°F5.3°C 91% 7.0 mph W11.3 kmh W 13.0 mph20.9 kmh 29.97 in1014.9 mb 0.00 in0.0 mm 0.00 in0.0 mm 0.19 in4.8 mm
06:40 PM 44.0°F6.7°C 41.5°F5.3°C 91% 7.0 mph W11.3 kmh W 13.0 mph20.9 kmh 29.97 in1014.9 mb 0.00 in0.0 mm 0.00 in0.0 mm 0.19 in4.8 mm
06:42 PM 44.0°F6.7°C 41.5°F5.3°C 91% 7.0 mph W11.3 kmh W 16.0 mph25.7 kmh 29.97 in1014.9 mb 0.00 in0.0 mm 0.00 in0.0 mm 0.19 in4.8 mm
06:44 PM 43.8°F6.6°C 41.3°F5.2°C 91% 8.0 mph W12.9 kmh W 16.0 mph25.7 kmh 29.97 in1014.9 mb 0.00 in0.0 mm 0.00 in0.0 mm 0.19 in4.8 mm
06:46 PM 43.8°F6.6°C 41.3°F5.2°C 91% 8.0 mph W12.9 kmh W 16.0 mph25.7 kmh 29.97 in1014.9 mb 0.00 in0.0 mm 0.00 in0.0 mm 0.19 in4.8 mm
06:48 PM 43.8°F6.6°C 41.3°F5.2°C 91% 8.0 mph W12.9 kmh W 16.0 mph25.7 kmh 29.98 in1015.2 mb 0.00 in0.0 mm 0.00 in0.0 mm 0.19 in4.8 mm
06:50 PM 43.7°F6.5°C 41.2°F5.1°C 91% 8.0 mph W12.9 kmh W 16.0 mph25.7 kmh 29.98 in1015.2 mb 0.00 in0.0 mm 0.00 in0.0 mm 0.19 in4.8 mm
06:52 PM 43.6°F6.4°C 41.1°F5.1°C 91% 8.0 mph W12.9 kmh W 17.0 mph27.4 kmh 29.98 in1015.2 mb 0.00 in0.0 mm 0.00 in0.0 mm 0.19 in4.8 mm
06:54 PM 43.5°F6.4°C 41.0°F5.0°C 91% 8.0 mph W12.9 kmh W 17.0 mph27.4 kmh 29.98 in1015.2 mb 0.00 in0.0 mm 0.00 in0.0 mm 0.19 in4.8 mm
06:56 PM 43.4°F6.3°C 40.9°F4.9°C 91% 9.0 mph W14.5 kmh W 17.0 mph27.4 kmh 29.98 in1015.2 mb 0.00 in0.0 mm 0.00 in0.0 mm 0.19 in4.8 mm
06:58 PM 43.4°F6.3°C 40.9°F4.9°C 91% 9.0 mph W14.5 kmh W 17.0 mph27.4 kmh 29.98 in1015.2 mb 0.00 in0.0 mm 0.00 in0.0 mm 0.19 in4.8 mm
07:00 PM 43.3°F6.3°C 40.8°F4.9°C 91% 9.0 mph W14.5 kmh W 17.0 mph27.4 kmh 29.98 in1015.2 mb 0.00 in0.0 mm 0.00 in0.0 mm 0.19 in4.8 mm
07:02 PM 43.3°F6.3°C 40.8°F4.9°C 91% 8.0 mph W12.9 kmh W 14.0 mph22.5 kmh 29.98 in1015.2 mb 0.00 in0.0 mm 0.00 in0.0 mm 0.19 in4.8 mm
07:04 PM 43.3°F6.3°C 40.8°F4.9°C 91% 8.0 mph W12.9 kmh W 14.0 mph22.5 kmh 29.99 in1015.6 mb 0.00 in0.0 mm 0.00 in0.0 mm 0.19 in4.8 mm
07:06 PM 43.2°F6.2°C 40.8°F4.9°C 91% 8.0 mph W12.9 kmh W 15.0 mph24.1 kmh 29.99 in1015.6 mb 0.00 in0.0 mm 0.00 in0.0 mm 0.19 in4.8 mm
07:08 PM 43.0°F6.1°C 40.6°F4.8°C 91% 9.0 mph W14.5 kmh W 16.0 mph25.7 kmh 29.99 in1015.6 mb 0.00 in0.0 mm 0.00 in0.0 mm 0.19 in4.8 mm
07:10 PM 43.0°F6.1°C 40.6°F4.8°C 91% 9.0 mph W14.5 kmh W 16.0 mph25.7 kmh 29.99 in1015.6 mb 0.00 in0.0 mm 0.00 in0.0 mm 0.19 in4.8 mm
07:12 PM 42.9°F6.1°C 40.5°F4.7°C 91% 9.0 mph W14.5 kmh W 16.0 mph25.7 kmh 29.99 in1015.6 mb 0.00 in0.0 mm 0.00 in0.0 mm 0.19 in4.8 mm
07:14 PM 42.8°F6.0°C 40.4°F4.7°C 91% 9.0 mph W14.5 kmh W 16.0 mph25.7 kmh 29.99 in1015.6 mb 0.00 in0.0 mm 0.00 in0.0 mm 0.19 in4.8 mm
07:16 PM 42.7°F5.9°C 40.3°F4.6°C 91% 10.0 mph W16.1 kmh W 16.0 mph25.7 kmh 29.99 in1015.6 mb 0.00 in0.0 mm 0.00 in0.0 mm 0.19 in4.8 mm
07:18 PM 42.7°F5.9°C 40.3°F4.6°C 91% 9.0 mph W14.5 kmh W 15.0 mph24.1 kmh 29.99 in1015.6 mb 0.00 in0.0 mm 0.00 in0.0 mm 0.19 in4.8 mm
07:20 PM 42.7°F5.9°C 40.3°F4.6°C 91% 9.0 mph W14.5 kmh W 15.0 mph24.1 kmh 29.99 in1015.6 mb 0.00 in0.0 mm 0.00 in0.0 mm 0.19 in4.8 mm
07:22 PM 42.6°F5.9°C 40.2°F4.6°C 91% 9.0 mph W14.5 kmh W 15.0 mph24.1 kmh 29.99 in1015.6 mb 0.00 in0.0 mm 0.00 in0.0 mm 0.19 in4.8 mm
07:24 PM 42.6°F5.9°C 40.2°F4.6°C 91% 9.0 mph W14.5 kmh W 14.0 mph22.5 kmh 29.99 in1015.6 mb 0.00 in0.0 mm 0.00 in0.0 mm 0.19 in4.8 mm
07:26 PM 42.5°F5.8°C 39.8°F4.3°C 90% 9.0 mph W14.5 kmh W 13.0 mph20.9 kmh 29.99 in1015.6 mb 0.00 in0.0 mm 0.00 in0.0 mm 0.19 in4.8 mm
07:28 PM 42.5°F5.8°C 40.1°F4.5°C 91% 8.0 mph W12.9 kmh W 13.0 mph20.9 kmh 29.99 in1015.6 mb 0.00 in0.0 mm 0.00 in0.0 mm 0.19 in4.8 mm
07:30 PM 42.5°F5.8°C 40.1°F4.5°C 91% 8.0 mph W12.9 kmh W 13.0 mph20.9 kmh 29.99 in1015.6 mb 0.00 in0.0 mm 0.00 in0.0 mm 0.19 in4.8 mm
07:32 PM 42.5°F5.8°C 40.1°F4.5°C 91% 7.0 mph W11.3 kmh W 12.0 mph19.3 kmh 29.99 in1015.6 mb 0.00 in0.0 mm 0.00 in0.0 mm 0.19 in4.8 mm
07:34 PM 42.5°F5.8°C 40.1°F4.5°C 91% 7.0 mph W11.3 kmh W 14.0 mph22.5 kmh 29.99 in1015.6 mb 0.00 in0.0 mm 0.00 in0.0 mm 0.19 in4.8 mm
07:36 PM 42.5°F5.8°C 40.1°F4.5°C 91% 7.0 mph W11.3 kmh W 14.0 mph22.5 kmh 29.99 in1015.6 mb 0.00 in0.0 mm 0.00 in0.0 mm 0.19 in4.8 mm
07:38 PM 42.4°F5.8°C 40.0°F4.4°C 91% 7.0 mph W11.3 kmh W 14.0 mph22.5 kmh 29.99 in1015.6 mb 0.00 in0.0 mm 0.00 in0.0 mm 0.19 in4.8 mm
07:40 PM 42.4°F5.8°C 40.0°F4.4°C 91% 7.0 mph W11.3 kmh W 14.0 mph22.5 kmh 30.00 in1015.9 mb 0.00 in0.0 mm 0.00 in0.0 mm 0.19 in4.8 mm
07:42 PM 42.4°F5.8°C 40.0°F4.4°C 91% 7.0 mph W11.3 kmh W 14.0 mph22.5 kmh 30.00 in1015.9 mb 0.00 in0.0 mm 0.00 in0.0 mm 0.19 in4.8 mm
07:44 PM 42.3°F5.7°C 39.9°F4.4°C 91% 7.0 mph W11.3 kmh W 13.0 mph20.9 kmh 30.00 in1015.9 mb 0.00 in0.0 mm 0.00 in0.0 mm 0.19 in4.8 mm
07:46 PM 42.3°F5.7°C 39.9°F4.4°C 91% 7.0 mph W11.3 kmh W 13.0 mph20.9 kmh 30.01 in1016.3 mb 0.00 in0.0 mm 0.00 in0.0 mm 0.19 in4.8 mm
07:48 PM 42.3°F5.7°C 39.9°F4.4°C 91% 6.0 mph W9.7 kmh W 11.0 mph17.7 kmh 30.01 in1016.3 mb 0.00 in0.0 mm 0.00 in0.0 mm 0.19 in4.8 mm
07:50 PM 42.3°F5.7°C 39.9°F4.4°C 91% 6.0 mph W9.7 kmh W 11.0 mph17.7 kmh 30.01 in1016.3 mb 0.00 in0.0 mm 0.00 in0.0 mm 0.19 in4.8 mm
07:52 PM 42.3°F5.7°C 39.9°F4.4°C 91% 6.0 mph W9.7 kmh W 11.0 mph17.7 kmh 30.01 in1016.3 mb 0.00 in0.0 mm 0.00 in0.0 mm 0.19 in4.8 mm
07:54 PM 42.3°F5.7°C 39.9°F4.4°C 91% 7.0 mph W11.3 kmh W 11.0 mph17.7 kmh 30.01 in1016.3 mb 0.00 in0.0 mm 0.00 in0.0 mm 0.19 in4.8 mm
07:56 PM 42.3°F5.7°C 39.9°F4.4°C 91% 6.0 mph W9.7 kmh W 11.0 mph17.7 kmh 30.01 in1016.3 mb 0.00 in0.0 mm 0.00 in0.0 mm 0.19 in4.8 mm
07:58 PM 42.3°F5.7°C 39.9°F4.4°C 91% 7.0 mph W11.3 kmh W 11.0 mph17.7 kmh 30.01 in1016.3 mb 0.00 in0.0 mm 0.00 in0.0 mm 0.19 in4.8 mm
08:00 PM 42.3°F5.7°C 39.9°F4.4°C 91% 7.0 mph W11.3 kmh W 11.0 mph17.7 kmh 30.01 in1016.3 mb 0.00 in0.0 mm 0.00 in0.0 mm 0.19 in4.8 mm
08:02 PM 42.2°F5.7°C 39.8°F4.3°C 91% 7.0 mph W11.3 kmh W 11.0 mph17.7 kmh 30.01 in1016.3 mb 0.00 in0.0 mm 0.00 in0.0 mm 0.19 in4.8 mm
08:04 PM 42.2°F5.7°C 39.8°F4.3°C 91% 6.0 mph W9.7 kmh W 10.0 mph16.1 kmh 30.02 in1016.6 mb 0.00 in0.0 mm 0.00 in0.0 mm 0.19 in4.8 mm
08:06 PM 42.2°F5.7°C 39.8°F4.3°C 91% 6.0 mph W9.7 kmh W 10.0 mph16.1 kmh 30.02 in1016.6 mb 0.00 in0.0 mm 0.00 in0.0 mm 0.19 in4.8 mm
08:08 PM 42.2°F5.7°C 39.8°F4.3°C 91% 6.0 mph W9.7 kmh W 10.0 mph16.1 kmh 30.02 in1016.6 mb 0.00 in0.0 mm 0.00 in0.0 mm 0.19 in4.8 mm
08:10 PM 42.2°F5.7°C 39.8°F4.3°C 91% 6.0 mph W9.7 kmh W 10.0 mph16.1 kmh 30.02 in1016.6 mb 0.00 in0.0 mm 0.00 in0.0 mm 0.19 in4.8 mm
08:12 PM 42.2°F5.7°C 39.8°F4.3°C 91% 6.0 mph W9.7 kmh W 10.0 mph16.1 kmh 30.02 in1016.6 mb 0.00 in0.0 mm 0.00 in0.0 mm 0.19 in4.8 mm
08:14 PM 42.2°F5.7°C 39.8°F4.3°C 91% 6.0 mph W9.7 kmh W 10.0 mph16.1 kmh 30.02 in1016.6 mb 0.00 in0.0 mm 0.00 in0.0 mm 0.19 in4.8 mm
08:16 PM 42.2°F5.7°C 39.8°F4.3°C 91% 6.0 mph W9.7 kmh W 16.0 mph25.7 kmh 30.02 in1016.6 mb 0.00 in0.0 mm 0.00 in0.0 mm 0.19 in4.8 mm
08:18 PM 42.1°F5.6°C 39.7°F4.3°C 91% 7.0 mph W11.3 kmh W 16.0 mph25.7 kmh 30.02 in1016.6 mb 0.00 in0.0 mm 0.00 in0.0 mm 0.19 in4.8 mm
08:20 PM 42.0°F5.6°C 39.3°F4.1°C 90% 7.0 mph W11.3 kmh W 16.0 mph25.7 kmh 30.02 in1016.6 mb 0.00 in0.0 mm 0.00 in0.0 mm 0.19 in4.8 mm
08:22 PM 42.0°F5.6°C 39.3°F4.1°C 90% 8.0 mph WNW12.9 kmh WNW 17.0 mph27.4 kmh 30.02 in1016.6 mb 0.00 in0.0 mm 0.00 in0.0 mm 0.19 in4.8 mm
08:24 PM 41.9°F5.5°C 39.2°F4.0°C 90% 9.0 mph WNW14.5 kmh WNW 19.0 mph30.6 kmh 30.02 in1016.6 mb 0.00 in0.0 mm 0.00 in0.0 mm 0.19 in4.8 mm
08:26 PM 41.9°F5.5°C 38.9°F3.8°C 89% 10.0 mph WNW16.1 kmh WNW 19.0 mph30.6 kmh 30.02 in1016.6 mb 0.00 in0.0 mm 0.00 in0.0 mm 0.19 in4.8 mm
08:28 PM 41.8°F5.4°C 38.8°F3.8°C 89% 10.0 mph WNW16.1 kmh WNW 19.0 mph30.6 kmh 30.02 in1016.6 mb 0.00 in0.0 mm 0.00 in0.0 mm 0.19 in4.8 mm
08:30 PM 41.8°F5.4°C 38.8°F3.8°C 89% 10.0 mph WNW16.1 kmh WNW 19.0 mph30.6 kmh 30.02 in1016.6 mb 0.00 in0.0 mm 0.00 in0.0 mm 0.19 in4.8 mm
08:32 PM 41.8°F5.4°C 38.8°F3.8°C 89% 10.0 mph WNW16.1 kmh WNW 19.0 mph30.6 kmh 30.02 in1016.6 mb 0.00 in0.0 mm 0.00 in0.0 mm 0.19 in4.8 mm
08:34 PM 41.8°F5.4°C 38.8°F3.8°C 89% 10.0 mph WNW16.1 kmh WNW 16.0 mph25.7 kmh 30.02 in1016.6 mb 0.00 in0.0 mm 0.00 in0.0 mm 0.19 in4.8 mm
08:36 PM 41.8°F5.4°C 38.8°F3.8°C 89% 10.0 mph WNW16.1 kmh WNW 16.0 mph25.7 kmh 30.01 in1016.3 mb 0.00 in0.0 mm 0.00 in0.0 mm 0.19 in4.8 mm
08:38 PM 41.8°F5.4°C 38.8°F3.8°C 89% 9.0 mph WNW14.5 kmh WNW 16.0 mph25.7 kmh 30.01 in1016.3 mb 0.00 in0.0 mm 0.00 in0.0 mm 0.19 in4.8 mm
08:40 PM 41.8°F5.4°C 38.8°F3.8°C 89% 9.0 mph WNW14.5 kmh WNW 16.0 mph25.7 kmh 30.01 in1016.3 mb 0.00 in0.0 mm 0.00 in0.0 mm 0.19 in4.8 mm
08:42 PM 41.7°F5.4°C 38.7°F3.7°C 89% 8.0 mph WNW12.9 kmh WNW 14.0 mph22.5 kmh 30.02 in1016.6 mb 0.00 in0.0 mm 0.00 in0.0 mm 0.19 in4.8 mm
08:44 PM 41.7°F5.4°C 39.0°F3.9°C 90% 8.0 mph WNW12.9 kmh WNW 14.0 mph22.5 kmh 30.01 in1016.3 mb 0.00 in0.0 mm 0.00 in0.0 mm 0.19 in4.8 mm
08:46 PM 41.7°F5.4°C 39.0°F3.9°C 90% 8.0 mph WNW12.9 kmh WNW 15.0 mph24.1 kmh 30.01 in1016.3 mb 0.00 in0.0 mm 0.00 in0.0 mm 0.19 in4.8 mm
08:48 PM 41.7°F5.4°C 39.0°F3.9°C 90% 8.0 mph WNW12.9 kmh WNW 15.0 mph24.1 kmh 30.01 in1016.3 mb 0.00 in0.0 mm 0.00 in0.0 mm 0.19 in4.8 mm
08:50 PM 41.6°F5.3°C 38.9°F3.8°C 90% 8.0 mph WNW12.9 kmh WNW 15.0 mph24.1 kmh 30.02 in1016.6 mb 0.00 in0.0 mm 0.00 in0.0 mm 0.19 in4.8 mm
08:52 PM 41.6°F5.3°C 38.9°F3.8°C 90% 8.0 mph WNW12.9 kmh WNW 15.0 mph24.1 kmh 30.02 in1016.6 mb 0.00 in0.0 mm 0.00 in0.0 mm 0.19 in4.8 mm
08:54 PM 41.6°F5.3°C 38.9°F3.8°C 90% 8.0 mph WNW12.9 kmh WNW 15.0 mph24.1 kmh 30.02 in1016.6 mb 0.00 in0.0 mm 0.00 in0.0 mm 0.19 in4.8 mm
08:56 PM 41.5°F5.3°C 38.8°F3.8°C 90% 8.0 mph WNW12.9 kmh WNW 13.0 mph20.9 kmh 30.02 in1016.6 mb 0.00 in0.0 mm 0.00 in0.0 mm 0.19 in4.8 mm
08:58 PM 41.5°F5.3°C 38.8°F3.8°C 90% 8.0 mph WNW12.9 kmh WNW 13.0 mph20.9 kmh 30.02 in1016.6 mb 0.00 in0.0 mm 0.00 in0.0 mm 0.19 in4.8 mm
09:00 PM 41.5°F5.3°C 38.8°F3.8°C 90% 7.0 mph WNW11.3 kmh WNW 13.0 mph20.9 kmh 30.02 in1016.6 mb 0.00 in0.0 mm 0.00 in0.0 mm 0.19 in4.8 mm
09:02 PM 41.4°F5.2°C 38.7°F3.7°C 90% 7.0 mph WNW11.3 kmh WNW 14.0 mph22.5 kmh 30.02 in1016.6 mb 0.00 in0.0 mm 0.00 in0.0 mm 0.19 in4.8 mm
09:04 PM 41.4°F5.2°C 38.7°F3.7°C 90% 8.0 mph WNW12.9 kmh WNW 14.0 mph22.5 kmh 30.02 in1016.6 mb 0.00 in0.0 mm 0.00 in0.0 mm 0.19 in4.8 mm
09:06 PM 41.4°F5.2°C 38.7°F3.7°C 90% 7.0 mph WNW11.3 kmh WNW 14.0 mph22.5 kmh 30.02 in1016.6 mb 0.00 in0.0 mm 0.00 in0.0 mm 0.19 in4.8 mm
09:08 PM 41.3°F5.2°C 38.6°F3.7°C 90% 7.0 mph WNW11.3 kmh WNW 14.0 mph22.5 kmh 30.02 in1016.6 mb 0.00 in0.0 mm 0.00 in0.0 mm 0.19 in4.8 mm
09:10 PM 41.3°F5.2°C 38.6°F3.7°C 90% 8.0 mph WNW12.9 kmh WNW 14.0 mph22.5 kmh 30.02 in1016.6 mb 0.00 in0.0 mm 0.00 in0.0 mm 0.19 in4.8 mm
09:12 PM 41.3°F5.2°C 38.6°F3.7°C 90% 7.0 mph WNW11.3 kmh WNW 13.0 mph20.9 kmh 30.02 in1016.6 mb 0.00 in0.0 mm 0.00 in0.0 mm 0.19 in4.8 mm
09:14 PM 41.2°F5.1°C 38.5°F3.6°C 90% 7.0 mph WNW11.3 kmh WNW 13.0 mph20.9 kmh 30.02 in1016.6 mb 0.00 in0.0 mm 0.00 in0.0 mm 0.19 in4.8 mm
09:16 PM 41.2°F5.1°C 38.5°F3.6°C 90% 7.0 mph WNW11.3 kmh WNW 13.0 mph20.9 kmh 30.02 in1016.6 mb 0.00 in0.0 mm 0.00 in0.0 mm 0.19 in4.8 mm
09:18 PM 41.2°F5.1°C 38.5°F3.6°C 90% 7.0 mph WNW11.3 kmh WNW 13.0 mph20.9 kmh 30.02 in1016.6 mb 0.00 in0.0 mm 0.00 in0.0 mm 0.19 in4.8 mm
09:20 PM 41.1°F5.1°C 38.4°F3.6°C 90% 7.0 mph WNW11.3 kmh WNW 12.0 mph19.3 kmh 30.03 in1016.9 mb 0.00 in0.0 mm 0.00 in0.0 mm 0.19 in4.8 mm
09:22 PM 41.1°F5.1°C 38.4°F3.6°C 90% 7.0 mph WNW11.3 kmh WNW 12.0 mph19.3 kmh 30.03 in1016.9 mb 0.00 in0.0 mm 0.00 in0.0 mm 0.19 in4.8 mm
09:24 PM 41.1°F5.1°C 38.4°F3.6°C 90% 7.0 mph WNW11.3 kmh WNW 12.0 mph19.3 kmh 30.03 in1016.9 mb 0.00 in0.0 mm 0.00 in0.0 mm 0.19 in4.8 mm
09:26 PM 41.1°F5.1°C 38.4°F3.6°C 90% 8.0 mph WNW12.9 kmh WNW 12.0 mph19.3 kmh 30.03 in1016.9 mb 0.00 in0.0 mm 0.00 in0.0 mm 0.19 in4.8 mm
09:28 PM 41.1°F5.1°C 38.4°F3.6°C 90% 8.0 mph WNW12.9 kmh WNW 14.0 mph22.5 kmh 30.03 in1016.9 mb 0.00 in0.0 mm 0.00 in0.0 mm 0.19 in4.8 mm
09:30 PM 41.1°F5.1°C 38.4°F3.6°C 90% 8.0 mph WNW12.9 kmh WNW 14.0 mph22.5 kmh 30.03 in1016.9 mb 0.00 in0.0 mm 0.00 in0.0 mm 0.19 in4.8 mm
09:32 PM 41.1°F5.1°C 38.4°F3.6°C 90% 8.0 mph W12.9 kmh W 14.0 mph22.5 kmh 30.04 in1017.3 mb 0.00 in0.0 mm 0.00 in0.0 mm 0.19 in4.8 mm
09:34 PM 41.1°F5.1°C 38.4°F3.6°C 90% 8.0 mph WNW12.9 kmh WNW 14.0 mph22.5 kmh 30.04 in1017.3 mb 0.00 in0.0 mm 0.00 in0.0 mm 0.19 in4.8 mm
09:36 PM 41.1°F5.1°C 38.4°F3.6°C 90% 7.0 mph WNW11.3 kmh WNW 14.0 mph22.5 kmh 30.04 in1017.3 mb 0.00 in0.0 mm 0.00 in0.0 mm 0.19 in4.8 mm
09:38 PM 41.1°F5.1°C 38.4°F3.6°C 90% 7.0 mph WNW11.3 kmh WNW 12.0 mph19.3 kmh 30.04 in1017.3 mb 0.00 in0.0 mm 0.00 in0.0 mm 0.19 in4.8 mm
09:40 PM 41.1°F5.1°C 38.4°F3.6°C 90% 7.0 mph WNW11.3 kmh WNW 12.0 mph19.3 kmh 30.04 in1017.3 mb 0.00 in0.0 mm 0.00 in0.0 mm 0.19 in4.8 mm
09:42 PM 41.1°F5.1°C 38.4°F3.6°C 90% 7.0 mph WNW11.3 kmh WNW 12.0 mph19.3 kmh 30.03 in1016.9 mb 0.00 in0.0 mm 0.00 in0.0 mm 0.19 in4.8 mm
09:44 PM 41.0°F5.0°C 38.3°F3.5°C 90% 7.0 mph WNW11.3 kmh WNW 12.0 mph19.3 kmh 30.03 in1016.9 mb 0.00 in0.0 mm 0.00 in0.0 mm 0.19 in4.8 mm
09:46 PM 41.0°F5.0°C 38.3°F3.5°C 90% 7.0 mph WNW11.3 kmh WNW 12.0 mph19.3 kmh 30.02 in1016.6 mb 0.00 in0.0 mm 0.00 in0.0 mm 0.19 in4.8 mm
09:48 PM 41.0°F5.0°C 38.3°F3.5°C 90% 7.0 mph WNW11.3 kmh WNW 13.0 mph20.9 kmh 30.02 in1016.6 mb 0.00 in0.0 mm 0.00 in0.0 mm 0.19 in4.8 mm
09:50 PM 41.0°F5.0°C 38.3°F3.5°C 90% 7.0 mph WNW11.3 kmh WNW 13.0 mph20.9 kmh 30.02 in1016.6 mb 0.00 in0.0 mm 0.00 in0.0 mm 0.19 in4.8 mm
09:52 PM 41.0°F5.0°C 38.3°F3.5°C 90% 7.0 mph WNW11.3 kmh WNW 13.0 mph20.9 kmh 30.02 in1016.6 mb 0.00 in0.0 mm 0.00 in0.0 mm 0.19 in4.8 mm
09:54 PM 40.9°F4.9°C 38.2°F3.4°C 90% 8.0 mph WNW12.9 kmh WNW 13.0 mph20.9 kmh 30.02 in1016.6 mb 0.00 in0.0 mm 0.00 in0.0 mm 0.19 in4.8 mm
09:56 PM 40.9°F4.9°C 38.2°F3.4°C 90% 8.0 mph WNW12.9 kmh WNW 13.0 mph20.9 kmh 30.02 in1016.6 mb 0.00 in0.0 mm 0.00 in0.0 mm 0.19 in4.8 mm
09:58 PM 40.9°F4.9°C 38.2°F3.4°C 90% 7.0 mph WNW11.3 kmh WNW 13.0 mph20.9 kmh 30.02 in1016.6 mb 0.00 in0.0 mm 0.00 in0.0 mm 0.19 in4.8 mm
10:00 PM 40.9°F4.9°C 38.2°F3.4°C 90% 7.0 mph NW11.3 kmh NW 13.0 mph20.9 kmh 30.02 in1016.6 mb 0.00 in0.0 mm 0.00 in0.0 mm 0.19 in4.8 mm
10:02 PM 40.9°F4.9°C 38.2°F3.4°C 90% 8.0 mph NW12.9 kmh NW 13.0 mph20.9 kmh 30.02 in1016.6 mb 0.00 in0.0 mm 0.00 in0.0 mm 0.19 in4.8 mm
10:04 PM 40.9°F4.9°C 38.2°F3.4°C 90% 8.0 mph NW12.9 kmh NW 14.0 mph22.5 kmh 30.03 in1016.9 mb 0.00 in0.0 mm 0.00 in0.0 mm 0.19 in4.8 mm
10:06 PM 40.8°F4.9°C 38.1°F3.4°C 90% 8.0 mph NW12.9 kmh NW 14.0 mph22.5 kmh 30.03 in1016.9 mb 0.00 in0.0 mm 0.00 in0.0 mm 0.19 in4.8 mm
10:08 PM 40.8°F4.9°C 38.1°F3.4°C 90% 8.0 mph NW12.9 kmh NW 14.0 mph22.5 kmh 30.03 in1016.9 mb 0.00 in0.0 mm 0.00 in0.0 mm 0.19 in4.8 mm
10:10 PM 40.7°F4.8°C 38.0°F3.3°C 90% 8.0 mph NW12.9 kmh NW 14.0 mph22.5 kmh 30.02 in1016.6 mb 0.00 in0.0 mm 0.00 in0.0 mm 0.19 in4.8 mm
10:12 PM 40.7°F4.8°C 38.0°F3.3°C 90% 8.0 mph NW12.9 kmh NW 14.0 mph22.5 kmh 30.03 in1016.9 mb 0.00 in0.0 mm 0.00 in0.0 mm 0.19 in4.8 mm
10:14 PM 40.7°F4.8°C 38.0°F3.3°C 90% 8.0 mph NW12.9 kmh NW 13.0 mph20.9 kmh 30.03 in1016.9 mb 0.00 in0.0 mm 0.00 in0.0 mm 0.19 in4.8 mm
10:16 PM 40.6°F4.8°C 37.9°F3.3°C 90% 8.0 mph NW12.9 kmh NW 13.0 mph20.9 kmh 30.03 in1016.9 mb 0.00 in0.0 mm 0.00 in0.0 mm 0.19 in4.8 mm
10:18 PM 40.6°F4.8°C 37.9°F3.3°C 90% 8.0 mph NW12.9 kmh NW 15.0 mph24.1 kmh 30.03 in1016.9 mb 0.00 in0.0 mm 0.00 in0.0 mm 0.19 in4.8 mm
10:20 PM 40.5°F4.7°C 37.8°F3.2°C 90% 8.0 mph NW12.9 kmh NW 15.0 mph24.1 kmh 30.03 in1016.9 mb 0.00 in0.0 mm 0.00 in0.0 mm 0.19 in4.8 mm
10:22 PM 40.5°F4.7°C 37.8°F3.2°C 90% 8.0 mph NW12.9 kmh NW 15.0 mph24.1 kmh 30.03 in1016.9 mb 0.00 in0.0 mm 0.00 in0.0 mm 0.19 in4.8 mm
10:24 PM 40.5°F4.7°C 37.8°F3.2°C 90% 9.0 mph NW14.5 kmh NW 16.0 mph25.7 kmh 30.03 in1016.9 mb 0.00 in0.0 mm 0.00 in0.0 mm 0.19 in4.8 mm
10:26 PM 40.4°F4.7°C 37.4°F3.0°C 89% 9.0 mph NW14.5 kmh NW 16.0 mph25.7 kmh 30.03 in1016.9 mb 0.00 in0.0 mm 0.00 in0.0 mm 0.19 in4.8 mm
10:28 PM 40.4°F4.7°C 37.4°F3.0°C 89% 9.0 mph NW14.5 kmh NW 16.0 mph25.7 kmh 30.03 in1016.9 mb 0.00 in0.0 mm 0.00 in0.0 mm 0.19 in4.8 mm
10:30 PM 40.4°F4.7°C 37.4°F3.0°C 89% 9.0 mph NW14.5 kmh NW 16.0 mph25.7 kmh 30.04 in1017.3 mb 0.00 in0.0 mm 0.00 in0.0 mm 0.19 in4.8 mm
10:32 PM 40.4°F4.7°C 37.4°F3.0°C 89% 8.0 mph NW12.9 kmh NW 16.0 mph25.7 kmh 30.05 in1017.6 mb 0.00 in0.0 mm 0.00 in0.0 mm 0.19 in4.8 mm
10:34 PM 40.4°F4.7°C 37.4°F3.0°C 89% 8.0 mph WNW12.9 kmh WNW 13.0 mph20.9 kmh 30.05 in1017.6 mb 0.00 in0.0 mm 0.00 in0.0 mm 0.19 in4.8 mm
10:36 PM 40.4°F4.7°C 37.4°F3.0°C 89% 7.0 mph WNW11.3 kmh WNW 13.0 mph20.9 kmh 30.05 in1017.6 mb 0.00 in0.0 mm 0.00 in0.0 mm 0.19 in4.8 mm
10:38 PM 40.4°F4.7°C 37.4°F3.0°C 89% 8.0 mph WNW12.9 kmh WNW 13.0 mph20.9 kmh 30.05 in1017.6 mb 0.00 in0.0 mm 0.00 in0.0 mm 0.19 in4.8 mm
10:40 PM 40.4°F4.7°C 37.4°F3.0°C 89% 8.0 mph WNW12.9 kmh WNW 13.0 mph20.9 kmh 30.05 in1017.6 mb 0.00 in0.0 mm 0.00 in0.0 mm 0.19 in4.8 mm
10:42 PM 40.4°F4.7°C 37.4°F3.0°C 89% 8.0 mph WNW12.9 kmh WNW 12.0 mph19.3 kmh 30.05 in1017.6 mb 0.00 in0.0 mm 0.00 in0.0 mm 0.19 in4.8 mm
10:44 PM 40.4°F4.7°C 37.4°F3.0°C 89% 8.0 mph WNW12.9 kmh WNW 12.0 mph19.3 kmh 30.05 in1017.6 mb 0.00 in0.0 mm 0.00 in0.0 mm 0.19 in4.8 mm
10:46 PM 40.4°F4.7°C 37.4°F3.0°C 89% 8.0 mph WNW12.9 kmh WNW 14.0 mph22.5 kmh 30.05 in1017.6 mb 0.00 in0.0 mm 0.00 in0.0 mm 0.19 in4.8 mm
10:48 PM 40.4°F4.7°C 37.1°F2.8°C 88% 8.0 mph WNW12.9 kmh WNW 14.0 mph22.5 kmh 30.05 in1017.6 mb 0.00 in0.0 mm 0.00 in0.0 mm 0.19 in4.8 mm
10:50 PM 40.4°F4.7°C 37.1°F2.8°C 88% 8.0 mph WNW12.9 kmh WNW 15.0 mph24.1 kmh 30.05 in1017.6 mb 0.00 in0.0 mm 0.00 in0.0 mm 0.19 in4.8 mm
10:52 PM 40.4°F4.7°C 37.1°F2.8°C 88% 9.0 mph WNW14.5 kmh WNW 15.0 mph24.1 kmh 30.05 in1017.6 mb 0.00 in0.0 mm 0.00 in0.0 mm 0.19 in4.8 mm
10:54 PM 40.4°F4.7°C 37.1°F2.8°C 88% 9.0 mph WNW14.5 kmh WNW 15.0 mph24.1 kmh 30.05 in1017.6 mb 0.00 in0.0 mm 0.00 in0.0 mm 0.19 in4.8 mm
10:56 PM 40.4°F4.7°C 37.1°F2.8°C 88% 9.0 mph WNW14.5 kmh WNW 15.0 mph24.1 kmh 30.05 in1017.6 mb 0.00 in0.0 mm 0.00 in0.0 mm 0.19 in4.8 mm
10:58 PM 40.3°F4.6°C 37.0°F2.8°C 88% 8.0 mph WNW12.9 kmh WNW 15.0 mph24.1 kmh 30.05 in1017.6 mb 0.00 in0.0 mm 0.00 in0.0 mm 0.19 in4.8 mm
11:00 PM 40.4°F4.7°C 37.1°F2.8°C 88% 8.0 mph WNW12.9 kmh WNW 14.0 mph22.5 kmh 30.06 in1017.9 mb 0.00 in0.0 mm 0.00 in0.0 mm 0.19 in4.8 mm
11:02 PM 40.4°F4.7°C 37.1°F2.8°C 88% 9.0 mph WNW14.5 kmh WNW 15.0 mph24.1 kmh 30.06 in1017.9 mb 0.00 in0.0 mm 0.00 in0.0 mm 0.19 in4.8 mm
11:04 PM 40.4°F4.7°C 37.1°F2.8°C 88% 9.0 mph WNW14.5 kmh WNW 15.0 mph24.1 kmh 30.06 in1017.9 mb 0.00 in0.0 mm 0.00 in0.0 mm 0.19 in4.8 mm
11:06 PM 40.3°F4.6°C 37.0°F2.8°C 88% 9.0 mph WNW14.5 kmh WNW 16.0 mph25.7 kmh 30.06 in1017.9 mb 0.00 in0.0 mm 0.00 in0.0 mm 0.19 in4.8 mm
11:08 PM 40.3°F4.6°C 37.0°F2.8°C 88% 9.0 mph WNW14.5 kmh WNW 16.0 mph25.7 kmh 30.06 in1017.9 mb 0.00 in0.0 mm 0.00 in0.0 mm 0.19 in4.8 mm
11:10 PM 40.2°F4.6°C 36.9°F2.7°C 88% 9.0 mph WNW14.5 kmh WNW 16.0 mph25.7 kmh 30.06 in1017.9 mb 0.00 in0.0 mm 0.00 in0.0 mm 0.19 in4.8 mm
11:12 PM 40.2°F4.6°C 36.9°F2.7°C 88% 9.0 mph NW14.5 kmh NW 16.0 mph25.7 kmh 30.06 in1017.9 mb 0.00 in0.0 mm 0.00 in0.0 mm 0.19 in4.8 mm
11:14 PM 40.2°F4.6°C 36.6°F2.6°C 87% 9.0 mph NW14.5 kmh NW 16.0 mph25.7 kmh 30.06 in1017.9 mb 0.00 in0.0 mm 0.00 in0.0 mm 0.19 in4.8 mm
11:16 PM 40.2°F4.6°C 36.6°F2.6°C 87% 9.0 mph NW14.5 kmh NW 15.0 mph24.1 kmh 30.06 in1017.9 mb 0.00 in0.0 mm 0.00 in0.0 mm 0.19 in4.8 mm
11:18 PM 40.1°F4.5°C 36.8°F2.7°C 88% 8.0 mph NW12.9 kmh NW 15.0 mph24.1 kmh 30.06 in1017.9 mb 0.00 in0.0 mm 0.00 in0.0 mm 0.19 in4.8 mm
11:20 PM 40.1°F4.5°C 36.8°F2.7°C 88% 8.0 mph NW12.9 kmh NW 15.0 mph24.1 kmh 30.06 in1017.9 mb 0.00 in0.0 mm 0.00 in0.0 mm 0.19 in4.8 mm
11:22 PM 40.1°F4.5°C 36.8°F2.7°C 88% 8.0 mph NW12.9 kmh NW 14.0 mph22.5 kmh 30.06 in1017.9 mb 0.00 in0.0 mm 0.00 in0.0 mm 0.19 in4.8 mm
11:24 PM 40.0°F4.4°C 36.7°F2.6°C 88% 8.0 mph NW12.9 kmh NW 12.0 mph19.3 kmh 30.06 in1017.9 mb 0.00 in0.0 mm 0.00 in0.0 mm 0.19 in4.8 mm
11:26 PM 40.0°F4.4°C 36.7°F2.6°C 88% 8.0 mph NW12.9 kmh NW 13.0 mph20.9 kmh 30.05 in1017.6 mb 0.00 in0.0 mm 0.00 in0.0 mm 0.19 in4.8 mm
11:28 PM 40.0°F4.4°C 36.7°F2.6°C 88% 8.0 mph NW12.9 kmh NW 13.0 mph20.9 kmh 30.05 in1017.6 mb 0.00 in0.0 mm 0.00 in0.0 mm 0.19 in4.8 mm
11:30 PM 39.9°F4.4°C 36.6°F2.6°C 88% 9.0 mph NW14.5 kmh NW 15.0 mph24.1 kmh 30.05 in1017.6 mb 0.00 in0.0 mm 0.00 in0.0 mm 0.19 in4.8 mm
11:32 PM 39.8°F4.3°C 36.2°F2.3°C 87% 9.0 mph NW14.5 kmh NW 17.0 mph27.4 kmh 30.06 in1017.9 mb 0.00 in0.0 mm 0.00 in0.0 mm 0.19 in4.8 mm
11:34 PM 39.8°F4.3°C 36.2°F2.3°C 87% 10.0 mph NW16.1 kmh NW 17.0 mph27.4 kmh 30.06 in1017.9 mb 0.00 in0.0 mm 0.00 in0.0 mm 0.19 in4.8 mm
11:36 PM 39.7°F4.3°C 36.1°F2.3°C 87% 10.0 mph NW16.1 kmh NW 17.0 mph27.4 kmh 30.06 in1017.9 mb 0.00 in0.0 mm 0.00 in0.0 mm 0.19 in4.8 mm
11:38 PM 39.8°F4.3°C 36.2°F2.3°C 87% 10.0 mph NW16.1 kmh NW 17.0 mph27.4 kmh 30.06 in1017.9 mb 0.00 in0.0 mm 0.00 in0.0 mm 0.19 in4.8 mm
11:40 PM 39.7°F4.3°C 36.1°F2.3°C 87% 10.0 mph NW16.1 kmh NW 17.0 mph27.4 kmh 30.06 in1017.9 mb 0.00 in0.0 mm 0.00 in0.0 mm 0.19 in4.8 mm
11:42 PM 39.7°F4.3°C 36.1°F2.3°C 87% 10.0 mph NW16.1 kmh NW 16.0 mph25.7 kmh 30.06 in1017.9 mb 0.00 in0.0 mm 0.00 in0.0 mm 0.19 in4.8 mm
11:44 PM 39.7°F4.3°C 36.1°F2.3°C 87% 10.0 mph NW16.1 kmh NW 16.0 mph25.7 kmh 30.06 in1017.9 mb 0.00 in0.0 mm 0.00 in0.0 mm 0.19 in4.8 mm
11:46 PM 39.7°F4.3°C 36.1°F2.3°C 87% 9.0 mph NW14.5 kmh NW 16.0 mph25.7 kmh 30.06 in1017.9 mb 0.00 in0.0 mm 0.00 in0.0 mm 0.19 in4.8 mm
11:48 PM 39.7°F4.3°C 36.1°F2.3°C 87% 9.0 mph NW14.5 kmh NW 16.0 mph25.7 kmh 30.06 in1017.9 mb 0.00 in0.0 mm 0.00 in0.0 mm 0.19 in4.8 mm
11:50 PM 39.7°F4.3°C 36.1°F2.3°C 87% 9.0 mph NW14.5 kmh NW 12.0 mph19.3 kmh 30.06 in1017.9 mb 0.00 in0.0 mm 0.00 in0.0 mm 0.19 in4.8 mm
11:52 PM 39.7°F4.3°C 36.1°F2.3°C 87% 8.0 mph NW12.9 kmh NW 13.0 mph20.9 kmh 30.06 in1017.9 mb 0.00 in0.0 mm 0.00 in0.0 mm 0.19 in4.8 mm
11:54 PM 39.6°F4.2°C 36.3°F2.4°C 88% 8.0 mph NW12.9 kmh NW 13.0 mph20.9 kmh 30.07 in1018.3 mb 0.00 in0.0 mm 0.00 in0.0 mm 0.19 in4.8 mm
11:56 PM 39.6°F4.2°C 36.3°F2.4°C 88% 8.0 mph NW12.9 kmh NW 13.0 mph20.9 kmh 30.07 in1018.3 mb 0.00 in0.0 mm 0.00 in0.0 mm 0.19 in4.8 mm
11:58 PM 39.6°F4.2°C 36.3°F2.4°C 88% 8.0 mph NW12.9 kmh NW 13.0 mph20.9 kmh 30.07 in1018.3 mb 0.00 in0.0 mm 0.00 in0.0 mm 0.19 in4.8 mm